<?xml version="1.0" encoding="UTF-8" standalone="no" ?>
<gpx xmlns="http://www.topografix.com/GPX/1/1" xmlns:xsi="http://www.w3.org/2001/XMLSchema-instance" xsi:schemaLocation="http://www.topografix.com/GPX/1/1 http://www.topografix.com/GPX/1/1/gpx.xsd" version="1.1" creator="VisuGPX - https://www.visugpx.com">
  <metadata>
    <name>Le Mans 12-10-2014</name>
    <desc><![CDATA[Rando Le Mans 12/10]]></desc>
  </metadata>
  <trk>
    <name><![CDATA[Le Mans 12-10-2014_1]]></name>
    <trkseg>
      <trkpt lat="47.9943" lon="0.23496">
        <ele>41.5</ele>
        <time>2014-10-12T10:50:34Z</time>
      </trkpt>
      <trkpt lat="47.9943" lon="0.23496">
        <ele>41.5</ele>
        <time>2014-10-12T10:52:37Z</time>
      </trkpt>
      <trkpt lat="47.99423" lon="0.23493">
        <ele>35.1</ele>
        <time>2014-10-12T10:52:41Z</time>
      </trkpt>
      <trkpt lat="47.99435" lon="0.235">
        <ele>47.6</ele>
        <time>2014-10-12T10:52:43Z</time>
      </trkpt>
      <trkpt lat="47.99432" lon="0.235">
        <ele>45.3</ele>
        <time>2014-10-12T10:52:50Z</time>
      </trkpt>
      <trkpt lat="47.99433" lon="0.23512">
        <ele>49.8</ele>
        <time>2014-10-12T10:53:00Z</time>
      </trkpt>
      <trkpt lat="47.99418" lon="0.23507">
        <ele>25.7</ele>
        <time>2014-10-12T10:53:03Z</time>
      </trkpt>
      <trkpt lat="47.99429" lon="0.23521">
        <ele>38</ele>
        <time>2014-10-12T10:53:05Z</time>
      </trkpt>
      <trkpt lat="47.99427" lon="0.23536">
        <ele>55.7</ele>
        <time>2014-10-12T10:53:19Z</time>
      </trkpt>
      <trkpt lat="47.99449" lon="0.23557">
        <ele>103</ele>
        <time>2014-10-12T10:53:40Z</time>
      </trkpt>
      <trkpt lat="47.99457" lon="0.23562">
        <ele>101.2</ele>
        <time>2014-10-12T10:53:42Z</time>
      </trkpt>
      <trkpt lat="47.99458" lon="0.23559">
        <ele>100.1</ele>
        <time>2014-10-12T10:53:49Z</time>
      </trkpt>
      <trkpt lat="47.99458" lon="0.23559">
        <ele>100.1</ele>
        <time>2014-10-12T10:53:54Z</time>
      </trkpt>
      <trkpt lat="47.99452" lon="0.2355">
        <ele>98.6</ele>
        <time>2014-10-12T10:54:04Z</time>
      </trkpt>
      <trkpt lat="47.99445" lon="0.23556">
        <ele>96.7</ele>
        <time>2014-10-12T10:54:13Z</time>
      </trkpt>
      <trkpt lat="47.99441" lon="0.23557">
        <ele>96.2</ele>
        <time>2014-10-12T10:54:22Z</time>
      </trkpt>
      <trkpt lat="47.99441" lon="0.23553">
        <ele>92.9</ele>
        <time>2014-10-12T10:54:27Z</time>
      </trkpt>
      <trkpt lat="47.99441" lon="0.23553">
        <ele>92.9</ele>
        <time>2014-10-12T10:54:30Z</time>
      </trkpt>
      <trkpt lat="47.99436" lon="0.23544">
        <ele>87.1</ele>
        <time>2014-10-12T10:54:37Z</time>
      </trkpt>
      <trkpt lat="47.99429" lon="0.23543">
        <ele>84.9</ele>
        <time>2014-10-12T10:54:43Z</time>
      </trkpt>
      <trkpt lat="47.99427" lon="0.23545">
        <ele>81.3</ele>
        <time>2014-10-12T10:54:50Z</time>
      </trkpt>
      <trkpt lat="47.99428" lon="0.23549">
        <ele>79.5</ele>
        <time>2014-10-12T10:54:57Z</time>
      </trkpt>
      <trkpt lat="47.99428" lon="0.23549">
        <ele>79.3</ele>
        <time>2014-10-12T10:55:02Z</time>
      </trkpt>
      <trkpt lat="47.99419" lon="0.23548">
        <ele>73.4</ele>
        <time>2014-10-12T10:55:32Z</time>
      </trkpt>
      <trkpt lat="47.99419" lon="0.23548">
        <ele>71.4</ele>
        <time>2014-10-12T10:55:39Z</time>
      </trkpt>
      <trkpt lat="47.99414" lon="0.23558">
        <ele>63.9</ele>
        <time>2014-10-12T10:55:52Z</time>
      </trkpt>
      <trkpt lat="47.99417" lon="0.23568">
        <ele>62.7</ele>
        <time>2014-10-12T10:55:59Z</time>
      </trkpt>
      <trkpt lat="47.99417" lon="0.23579">
        <ele>61.4</ele>
        <time>2014-10-12T10:56:06Z</time>
      </trkpt>
      <trkpt lat="47.99416" lon="0.2359">
        <ele>60.9</ele>
        <time>2014-10-12T10:56:12Z</time>
      </trkpt>
      <trkpt lat="47.99416" lon="0.23602">
        <ele>58.7</ele>
        <time>2014-10-12T10:56:18Z</time>
      </trkpt>
      <trkpt lat="47.99416" lon="0.23613">
        <ele>56.8</ele>
        <time>2014-10-12T10:56:23Z</time>
      </trkpt>
      <trkpt lat="47.99414" lon="0.23623">
        <ele>56.1</ele>
        <time>2014-10-12T10:56:30Z</time>
      </trkpt>
      <trkpt lat="47.99414" lon="0.23627">
        <ele>56.2</ele>
        <time>2014-10-12T10:56:37Z</time>
      </trkpt>
      <trkpt lat="47.99409" lon="0.23632">
        <ele>55.2</ele>
        <time>2014-10-12T10:56:44Z</time>
      </trkpt>
      <trkpt lat="47.99405" lon="0.23635">
        <ele>55.2</ele>
        <time>2014-10-12T10:56:51Z</time>
      </trkpt>
      <trkpt lat="47.99404" lon="0.23635">
        <ele>54.7</ele>
        <time>2014-10-12T10:56:58Z</time>
      </trkpt>
      <trkpt lat="47.99404" lon="0.23635">
        <ele>54.7</ele>
        <time>2014-10-12T10:57:02Z</time>
      </trkpt>
      <trkpt lat="47.99405" lon="0.23637">
        <ele>53.4</ele>
        <time>2014-10-12T10:58:18Z</time>
      </trkpt>
      <trkpt lat="47.99405" lon="0.23637">
        <ele>53.4</ele>
        <time>2014-10-12T10:58:19Z</time>
      </trkpt>
      <trkpt lat="47.99407" lon="0.23638">
        <ele>53.6</ele>
        <time>2014-10-12T10:58:26Z</time>
      </trkpt>
      <trkpt lat="47.99406" lon="0.23639">
        <ele>53.7</ele>
        <time>2014-10-12T10:58:33Z</time>
      </trkpt>
      <trkpt lat="47.99406" lon="0.23639">
        <ele>53.7</ele>
        <time>2014-10-12T10:58:34Z</time>
      </trkpt>
      <trkpt lat="47.99405" lon="0.2365">
        <ele>54.3</ele>
        <time>2014-10-12T10:59:04Z</time>
      </trkpt>
      <trkpt lat="47.99405" lon="0.23659">
        <ele>54.2</ele>
        <time>2014-10-12T10:59:11Z</time>
      </trkpt>
      <trkpt lat="47.99399" lon="0.23663">
        <ele>54.4</ele>
        <time>2014-10-12T10:59:18Z</time>
      </trkpt>
      <trkpt lat="47.99395" lon="0.23667">
        <ele>53.4</ele>
        <time>2014-10-12T10:59:25Z</time>
      </trkpt>
      <trkpt lat="47.99392" lon="0.23665">
        <ele>52.8</ele>
        <time>2014-10-12T10:59:32Z</time>
      </trkpt>
      <trkpt lat="47.99392" lon="0.23668">
        <ele>52.3</ele>
        <time>2014-10-12T10:59:39Z</time>
      </trkpt>
      <trkpt lat="47.99392" lon="0.23668">
        <ele>52.3</ele>
        <time>2014-10-12T10:59:42Z</time>
      </trkpt>
      <trkpt lat="47.99383" lon="0.23666">
        <ele>51.7</ele>
        <time>2014-10-12T11:00:16Z</time>
      </trkpt>
      <trkpt lat="47.99381" lon="0.23661">
        <ele>51.6</ele>
        <time>2014-10-12T11:00:23Z</time>
      </trkpt>
      <trkpt lat="47.99381" lon="0.2366">
        <ele>51.7</ele>
        <time>2014-10-12T11:00:30Z</time>
      </trkpt>
      <trkpt lat="47.99381" lon="0.2366">
        <ele>51.7</ele>
        <time>2014-10-12T11:00:31Z</time>
      </trkpt>
      <trkpt lat="47.99376" lon="0.23671">
        <ele>51.5</ele>
        <time>2014-10-12T11:00:44Z</time>
      </trkpt>
      <trkpt lat="47.9937" lon="0.2368">
        <ele>51.6</ele>
        <time>2014-10-12T11:00:50Z</time>
      </trkpt>
      <trkpt lat="47.99369" lon="0.23682">
        <ele>51.7</ele>
        <time>2014-10-12T11:00:57Z</time>
      </trkpt>
      <trkpt lat="47.99369" lon="0.23682">
        <ele>51.7</ele>
        <time>2014-10-12T11:00:58Z</time>
      </trkpt>
      <trkpt lat="47.99377" lon="0.23684">
        <ele>51.7</ele>
        <time>2014-10-12T11:01:21Z</time>
      </trkpt>
      <trkpt lat="47.99383" lon="0.23684">
        <ele>51.8</ele>
        <time>2014-10-12T11:01:28Z</time>
      </trkpt>
      <trkpt lat="47.99383" lon="0.23682">
        <ele>52.1</ele>
        <time>2014-10-12T11:01:35Z</time>
      </trkpt>
      <trkpt lat="47.99383" lon="0.23682">
        <ele>52.1</ele>
        <time>2014-10-12T11:01:40Z</time>
      </trkpt>
      <trkpt lat="47.99389" lon="0.23674">
        <ele>51.4</ele>
        <time>2014-10-12T11:02:10Z</time>
      </trkpt>
      <trkpt lat="47.99396" lon="0.2367">
        <ele>51.3</ele>
        <time>2014-10-12T11:02:14Z</time>
      </trkpt>
      <trkpt lat="47.99403" lon="0.23669">
        <ele>51.6</ele>
        <time>2014-10-12T11:02:21Z</time>
      </trkpt>
      <trkpt lat="47.99411" lon="0.23671">
        <ele>51.6</ele>
        <time>2014-10-12T11:02:27Z</time>
      </trkpt>
      <trkpt lat="47.99419" lon="0.23675">
        <ele>51.3</ele>
        <time>2014-10-12T11:02:31Z</time>
      </trkpt>
      <trkpt lat="47.99425" lon="0.2368">
        <ele>50.8</ele>
        <time>2014-10-12T11:02:36Z</time>
      </trkpt>
      <trkpt lat="47.9943" lon="0.23688">
        <ele>50.6</ele>
        <time>2014-10-12T11:02:41Z</time>
      </trkpt>
      <trkpt lat="47.99431" lon="0.23699">
        <ele>50.5</ele>
        <time>2014-10-12T11:02:47Z</time>
      </trkpt>
      <trkpt lat="47.99429" lon="0.23711">
        <ele>50.2</ele>
        <time>2014-10-12T11:02:52Z</time>
      </trkpt>
      <trkpt lat="47.99425" lon="0.23721">
        <ele>49.8</ele>
        <time>2014-10-12T11:02:59Z</time>
      </trkpt>
      <trkpt lat="47.99421" lon="0.23731">
        <ele>49.6</ele>
        <time>2014-10-12T11:03:05Z</time>
      </trkpt>
      <trkpt lat="47.9942" lon="0.23743">
        <ele>48.8</ele>
        <time>2014-10-12T11:03:12Z</time>
      </trkpt>
      <trkpt lat="47.99416" lon="0.23752">
        <ele>48.7</ele>
        <time>2014-10-12T11:03:18Z</time>
      </trkpt>
      <trkpt lat="47.99414" lon="0.23757">
        <ele>48.1</ele>
        <time>2014-10-12T11:03:25Z</time>
      </trkpt>
      <trkpt lat="47.99409" lon="0.23764">
        <ele>48</ele>
        <time>2014-10-12T11:03:32Z</time>
      </trkpt>
      <trkpt lat="47.99402" lon="0.23765">
        <ele>47.8</ele>
        <time>2014-10-12T11:03:39Z</time>
      </trkpt>
      <trkpt lat="47.99402" lon="0.23765">
        <ele>47.2</ele>
        <time>2014-10-12T11:03:46Z</time>
      </trkpt>
      <trkpt lat="47.99402" lon="0.23765">
        <ele>47.2</ele>
        <time>2014-10-12T11:03:49Z</time>
      </trkpt>
      <trkpt lat="47.99395" lon="0.23772">
        <ele>46.6</ele>
        <time>2014-10-12T11:04:05Z</time>
      </trkpt>
      <trkpt lat="47.99387" lon="0.23776">
        <ele>46.6</ele>
        <time>2014-10-12T11:04:12Z</time>
      </trkpt>
      <trkpt lat="47.99378" lon="0.23777">
        <ele>46.8</ele>
        <time>2014-10-12T11:04:19Z</time>
      </trkpt>
      <trkpt lat="47.99371" lon="0.23778">
        <ele>47.1</ele>
        <time>2014-10-12T11:04:26Z</time>
      </trkpt>
      <trkpt lat="47.99363" lon="0.23781">
        <ele>47.3</ele>
        <time>2014-10-12T11:04:32Z</time>
      </trkpt>
      <trkpt lat="47.99356" lon="0.2379">
        <ele>47.3</ele>
        <time>2014-10-12T11:04:37Z</time>
      </trkpt>
      <trkpt lat="47.99348" lon="0.23796">
        <ele>47.3</ele>
        <time>2014-10-12T11:04:40Z</time>
      </trkpt>
      <trkpt lat="47.99341" lon="0.23802">
        <ele>47.4</ele>
        <time>2014-10-12T11:04:44Z</time>
      </trkpt>
      <trkpt lat="47.99338" lon="0.23812">
        <ele>47.3</ele>
        <time>2014-10-12T11:04:48Z</time>
      </trkpt>
      <trkpt lat="47.99339" lon="0.23823">
        <ele>47.2</ele>
        <time>2014-10-12T11:04:54Z</time>
      </trkpt>
      <trkpt lat="47.99344" lon="0.23832">
        <ele>46.7</ele>
        <time>2014-10-12T11:04:59Z</time>
      </trkpt>
      <trkpt lat="47.99344" lon="0.2384">
        <ele>45.7</ele>
        <time>2014-10-12T11:05:06Z</time>
      </trkpt>
      <trkpt lat="47.99343" lon="0.23845">
        <ele>45.7</ele>
        <time>2014-10-12T11:05:13Z</time>
      </trkpt>
      <trkpt lat="47.99338" lon="0.23849">
        <ele>45.8</ele>
        <time>2014-10-12T11:05:20Z</time>
      </trkpt>
      <trkpt lat="47.99334" lon="0.23852">
        <ele>45.9</ele>
        <time>2014-10-12T11:05:27Z</time>
      </trkpt>
      <trkpt lat="47.99333" lon="0.23853">
        <ele>46.6</ele>
        <time>2014-10-12T11:05:34Z</time>
      </trkpt>
      <trkpt lat="47.99333" lon="0.23853">
        <ele>46.6</ele>
        <time>2014-10-12T11:05:38Z</time>
      </trkpt>
      <trkpt lat="47.99325" lon="0.23855">
        <ele>47.1</ele>
        <time>2014-10-12T11:05:52Z</time>
      </trkpt>
      <trkpt lat="47.99318" lon="0.23853">
        <ele>47.2</ele>
        <time>2014-10-12T11:05:57Z</time>
      </trkpt>
      <trkpt lat="47.99309" lon="0.2385">
        <ele>47.4</ele>
        <time>2014-10-12T11:06:03Z</time>
      </trkpt>
      <trkpt lat="47.99302" lon="0.23849">
        <ele>47.6</ele>
        <time>2014-10-12T11:06:10Z</time>
      </trkpt>
      <trkpt lat="47.99294" lon="0.23846">
        <ele>47.8</ele>
        <time>2014-10-12T11:06:15Z</time>
      </trkpt>
      <trkpt lat="47.99287" lon="0.23845">
        <ele>48</ele>
        <time>2014-10-12T11:06:22Z</time>
      </trkpt>
      <trkpt lat="47.9928" lon="0.23846">
        <ele>48.2</ele>
        <time>2014-10-12T11:06:29Z</time>
      </trkpt>
      <trkpt lat="47.99272" lon="0.23853">
        <ele>48.4</ele>
        <time>2014-10-12T11:06:34Z</time>
      </trkpt>
      <trkpt lat="47.99267" lon="0.23863">
        <ele>48.5</ele>
        <time>2014-10-12T11:06:38Z</time>
      </trkpt>
      <trkpt lat="47.99264" lon="0.23874">
        <ele>48.6</ele>
        <time>2014-10-12T11:06:42Z</time>
      </trkpt>
      <trkpt lat="47.99259" lon="0.23883">
        <ele>48.5</ele>
        <time>2014-10-12T11:06:48Z</time>
      </trkpt>
      <trkpt lat="47.99258" lon="0.23892">
        <ele>48.5</ele>
        <time>2014-10-12T11:06:55Z</time>
      </trkpt>
      <trkpt lat="47.99258" lon="0.23905">
        <ele>48.7</ele>
        <time>2014-10-12T11:07:02Z</time>
      </trkpt>
      <trkpt lat="47.99261" lon="0.23915">
        <ele>48.9</ele>
        <time>2014-10-12T11:07:08Z</time>
      </trkpt>
      <trkpt lat="47.99264" lon="0.23927">
        <ele>49.3</ele>
        <time>2014-10-12T11:07:15Z</time>
      </trkpt>
      <trkpt lat="47.99266" lon="0.23939">
        <ele>49.4</ele>
        <time>2014-10-12T11:07:21Z</time>
      </trkpt>
      <trkpt lat="47.99268" lon="0.2395">
        <ele>49.8</ele>
        <time>2014-10-12T11:07:27Z</time>
      </trkpt>
      <trkpt lat="47.9927" lon="0.23961">
        <ele>50.3</ele>
        <time>2014-10-12T11:07:33Z</time>
      </trkpt>
      <trkpt lat="47.99275" lon="0.23971">
        <ele>50.5</ele>
        <time>2014-10-12T11:07:38Z</time>
      </trkpt>
      <trkpt lat="47.99277" lon="0.23978">
        <ele>51.2</ele>
        <time>2014-10-12T11:07:45Z</time>
      </trkpt>
      <trkpt lat="47.99278" lon="0.23981">
        <ele>51.6</ele>
        <time>2014-10-12T11:07:52Z</time>
      </trkpt>
      <trkpt lat="47.99281" lon="0.23979">
        <ele>52.1</ele>
        <time>2014-10-12T11:07:59Z</time>
      </trkpt>
      <trkpt lat="47.99281" lon="0.23979">
        <ele>52.1</ele>
        <time>2014-10-12T11:08:03Z</time>
      </trkpt>
      <trkpt lat="47.99279" lon="0.23982">
        <ele>51.6</ele>
        <time>2014-10-12T11:08:16Z</time>
      </trkpt>
      <trkpt lat="47.99279" lon="0.23982">
        <ele>51.6</ele>
        <time>2014-10-12T11:08:20Z</time>
      </trkpt>
      <trkpt lat="47.99283" lon="0.2399">
        <ele>51.9</ele>
        <time>2014-10-12T11:08:37Z</time>
      </trkpt>
      <trkpt lat="47.99288" lon="0.23998">
        <ele>52.3</ele>
        <time>2014-10-12T11:08:42Z</time>
      </trkpt>
      <trkpt lat="47.99293" lon="0.24007">
        <ele>52.3</ele>
        <time>2014-10-12T11:08:49Z</time>
      </trkpt>
      <trkpt lat="47.99298" lon="0.24016">
        <ele>52.2</ele>
        <time>2014-10-12T11:08:56Z</time>
      </trkpt>
      <trkpt lat="47.99296" lon="0.24027">
        <ele>52.5</ele>
        <time>2014-10-12T11:09:03Z</time>
      </trkpt>
      <trkpt lat="47.99289" lon="0.24029">
        <ele>52.9</ele>
        <time>2014-10-12T11:09:09Z</time>
      </trkpt>
      <trkpt lat="47.99282" lon="0.24026">
        <ele>53.3</ele>
        <time>2014-10-12T11:09:16Z</time>
      </trkpt>
      <trkpt lat="47.99278" lon="0.24023">
        <ele>54</ele>
        <time>2014-10-12T11:09:23Z</time>
      </trkpt>
      <trkpt lat="47.99279" lon="0.24022">
        <ele>54.4</ele>
        <time>2014-10-12T11:09:30Z</time>
      </trkpt>
      <trkpt lat="47.99279" lon="0.24022">
        <ele>54.4</ele>
        <time>2014-10-12T11:09:34Z</time>
      </trkpt>
      <trkpt lat="47.99284" lon="0.2403">
        <ele>54.8</ele>
        <time>2014-10-12T11:10:04Z</time>
      </trkpt>
      <trkpt lat="47.99284" lon="0.24041">
        <ele>54.8</ele>
        <time>2014-10-12T11:10:11Z</time>
      </trkpt>
      <trkpt lat="47.99278" lon="0.24045">
        <ele>55.1</ele>
        <time>2014-10-12T11:10:17Z</time>
      </trkpt>
      <trkpt lat="47.99274" lon="0.24046">
        <ele>55.7</ele>
        <time>2014-10-12T11:10:24Z</time>
      </trkpt>
      <trkpt lat="47.99269" lon="0.2405">
        <ele>56.4</ele>
        <time>2014-10-12T11:10:31Z</time>
      </trkpt>
      <trkpt lat="47.9926" lon="0.2405">
        <ele>56.9</ele>
        <time>2014-10-12T11:10:37Z</time>
      </trkpt>
      <trkpt lat="47.99257" lon="0.24055">
        <ele>57.1</ele>
        <time>2014-10-12T11:10:44Z</time>
      </trkpt>
      <trkpt lat="47.99257" lon="0.24066">
        <ele>56.9</ele>
        <time>2014-10-12T11:10:49Z</time>
      </trkpt>
      <trkpt lat="47.9926" lon="0.24076">
        <ele>57.2</ele>
        <time>2014-10-12T11:10:53Z</time>
      </trkpt>
      <trkpt lat="47.99264" lon="0.24086">
        <ele>57.2</ele>
        <time>2014-10-12T11:10:59Z</time>
      </trkpt>
      <trkpt lat="47.99269" lon="0.24094">
        <ele>57</ele>
        <time>2014-10-12T11:11:06Z</time>
      </trkpt>
      <trkpt lat="47.99274" lon="0.24102">
        <ele>57.1</ele>
        <time>2014-10-12T11:11:12Z</time>
      </trkpt>
      <trkpt lat="47.99282" lon="0.24108">
        <ele>57.1</ele>
        <time>2014-10-12T11:11:18Z</time>
      </trkpt>
      <trkpt lat="47.99289" lon="0.24111">
        <ele>56.4</ele>
        <time>2014-10-12T11:11:24Z</time>
      </trkpt>
      <trkpt lat="47.99297" lon="0.24112">
        <ele>56.1</ele>
        <time>2014-10-12T11:11:30Z</time>
      </trkpt>
      <trkpt lat="47.99304" lon="0.24116">
        <ele>56.5</ele>
        <time>2014-10-12T11:11:34Z</time>
      </trkpt>
      <trkpt lat="47.99312" lon="0.24118">
        <ele>56.8</ele>
        <time>2014-10-12T11:11:40Z</time>
      </trkpt>
      <trkpt lat="47.99318" lon="0.24115">
        <ele>56.9</ele>
        <time>2014-10-12T11:11:47Z</time>
      </trkpt>
      <trkpt lat="47.99326" lon="0.24117">
        <ele>57</ele>
        <time>2014-10-12T11:11:54Z</time>
      </trkpt>
      <trkpt lat="47.99333" lon="0.24119">
        <ele>57.2</ele>
        <time>2014-10-12T11:12:00Z</time>
      </trkpt>
      <trkpt lat="47.9934" lon="0.24123">
        <ele>57.7</ele>
        <time>2014-10-12T11:12:06Z</time>
      </trkpt>
      <trkpt lat="47.99349" lon="0.24123">
        <ele>57.8</ele>
        <time>2014-10-12T11:12:12Z</time>
      </trkpt>
      <trkpt lat="47.99357" lon="0.24123">
        <ele>57.7</ele>
        <time>2014-10-12T11:12:19Z</time>
      </trkpt>
      <trkpt lat="47.99363" lon="0.24125">
        <ele>57.7</ele>
        <time>2014-10-12T11:12:26Z</time>
      </trkpt>
      <trkpt lat="47.99369" lon="0.24132">
        <ele>57.1</ele>
        <time>2014-10-12T11:12:31Z</time>
      </trkpt>
      <trkpt lat="47.99377" lon="0.24137">
        <ele>56.8</ele>
        <time>2014-10-12T11:12:37Z</time>
      </trkpt>
      <trkpt lat="47.99384" lon="0.24139">
        <ele>56.6</ele>
        <time>2014-10-12T11:12:41Z</time>
      </trkpt>
      <trkpt lat="47.9939" lon="0.24146">
        <ele>56.6</ele>
        <time>2014-10-12T11:12:48Z</time>
      </trkpt>
      <trkpt lat="47.99395" lon="0.24154">
        <ele>56.6</ele>
        <time>2014-10-12T11:12:53Z</time>
      </trkpt>
      <trkpt lat="47.99401" lon="0.24162">
        <ele>56.6</ele>
        <time>2014-10-12T11:12:58Z</time>
      </trkpt>
      <trkpt lat="47.99403" lon="0.24168">
        <ele>56.4</ele>
        <time>2014-10-12T11:13:05Z</time>
      </trkpt>
      <trkpt lat="47.99407" lon="0.24178">
        <ele>56.2</ele>
        <time>2014-10-12T11:13:10Z</time>
      </trkpt>
      <trkpt lat="47.99413" lon="0.24187">
        <ele>55.9</ele>
        <time>2014-10-12T11:13:16Z</time>
      </trkpt>
      <trkpt lat="47.99419" lon="0.24194">
        <ele>55.8</ele>
        <time>2014-10-12T11:13:22Z</time>
      </trkpt>
      <trkpt lat="47.99426" lon="0.24198">
        <ele>55.6</ele>
        <time>2014-10-12T11:13:29Z</time>
      </trkpt>
      <trkpt lat="47.99434" lon="0.24199">
        <ele>55.7</ele>
        <time>2014-10-12T11:13:35Z</time>
      </trkpt>
      <trkpt lat="47.99441" lon="0.24203">
        <ele>55.8</ele>
        <time>2014-10-12T11:13:41Z</time>
      </trkpt>
      <trkpt lat="47.99447" lon="0.24211">
        <ele>56</ele>
        <time>2014-10-12T11:13:48Z</time>
      </trkpt>
      <trkpt lat="47.99452" lon="0.2422">
        <ele>56</ele>
        <time>2014-10-12T11:13:54Z</time>
      </trkpt>
      <trkpt lat="47.9946" lon="0.24224">
        <ele>56.1</ele>
        <time>2014-10-12T11:13:59Z</time>
      </trkpt>
      <trkpt lat="47.99466" lon="0.24232">
        <ele>56.7</ele>
        <time>2014-10-12T11:14:05Z</time>
      </trkpt>
      <trkpt lat="47.99473" lon="0.24238">
        <ele>57.2</ele>
        <time>2014-10-12T11:14:12Z</time>
      </trkpt>
      <trkpt lat="47.99479" lon="0.24244">
        <ele>57.5</ele>
        <time>2014-10-12T11:14:19Z</time>
      </trkpt>
      <trkpt lat="47.99485" lon="0.24251">
        <ele>57.4</ele>
        <time>2014-10-12T11:14:26Z</time>
      </trkpt>
      <trkpt lat="47.9949" lon="0.24257">
        <ele>57.8</ele>
        <time>2014-10-12T11:14:33Z</time>
      </trkpt>
      <trkpt lat="47.99497" lon="0.24264">
        <ele>58.5</ele>
        <time>2014-10-12T11:14:39Z</time>
      </trkpt>
      <trkpt lat="47.99503" lon="0.24272">
        <ele>59</ele>
        <time>2014-10-12T11:14:46Z</time>
      </trkpt>
      <trkpt lat="47.99506" lon="0.24279">
        <ele>59.6</ele>
        <time>2014-10-12T11:14:53Z</time>
      </trkpt>
      <trkpt lat="47.99508" lon="0.24286">
        <ele>59.6</ele>
        <time>2014-10-12T11:15:00Z</time>
      </trkpt>
      <trkpt lat="47.99514" lon="0.24295">
        <ele>59.7</ele>
        <time>2014-10-12T11:15:06Z</time>
      </trkpt>
      <trkpt lat="47.99515" lon="0.24298">
        <ele>60.3</ele>
        <time>2014-10-12T11:15:13Z</time>
      </trkpt>
      <trkpt lat="47.99516" lon="0.24303">
        <ele>60.3</ele>
        <time>2014-10-12T11:15:20Z</time>
      </trkpt>
      <trkpt lat="47.99517" lon="0.24312">
        <ele>60.4</ele>
        <time>2014-10-12T11:15:27Z</time>
      </trkpt>
      <trkpt lat="47.99523" lon="0.24322">
        <ele>60.6</ele>
        <time>2014-10-12T11:15:34Z</time>
      </trkpt>
      <trkpt lat="47.99529" lon="0.24329">
        <ele>60.5</ele>
        <time>2014-10-12T11:15:40Z</time>
      </trkpt>
      <trkpt lat="47.99533" lon="0.24335">
        <ele>60.3</ele>
        <time>2014-10-12T11:15:47Z</time>
      </trkpt>
      <trkpt lat="47.99538" lon="0.24341">
        <ele>60</ele>
        <time>2014-10-12T11:15:54Z</time>
      </trkpt>
      <trkpt lat="47.99544" lon="0.24347">
        <ele>59.9</ele>
        <time>2014-10-12T11:16:01Z</time>
      </trkpt>
      <trkpt lat="47.99548" lon="0.24357">
        <ele>60</ele>
        <time>2014-10-12T11:16:08Z</time>
      </trkpt>
      <trkpt lat="47.99552" lon="0.24365">
        <ele>60.4</ele>
        <time>2014-10-12T11:16:15Z</time>
      </trkpt>
      <trkpt lat="47.99555" lon="0.24375">
        <ele>60.8</ele>
        <time>2014-10-12T11:16:21Z</time>
      </trkpt>
      <trkpt lat="47.99557" lon="0.24387">
        <ele>61</ele>
        <time>2014-10-12T11:16:27Z</time>
      </trkpt>
      <trkpt lat="47.9956" lon="0.24398">
        <ele>60.8</ele>
        <time>2014-10-12T11:16:34Z</time>
      </trkpt>
      <trkpt lat="47.99561" lon="0.24409">
        <ele>60.7</ele>
        <time>2014-10-12T11:16:40Z</time>
      </trkpt>
      <trkpt lat="47.99561" lon="0.24419">
        <ele>61</ele>
        <time>2014-10-12T11:16:47Z</time>
      </trkpt>
      <trkpt lat="47.99563" lon="0.2443">
        <ele>61.3</ele>
        <time>2014-10-12T11:16:52Z</time>
      </trkpt>
      <trkpt lat="47.99566" lon="0.2444">
        <ele>61.3</ele>
        <time>2014-10-12T11:16:58Z</time>
      </trkpt>
      <trkpt lat="47.99568" lon="0.2445">
        <ele>61.3</ele>
        <time>2014-10-12T11:17:05Z</time>
      </trkpt>
      <trkpt lat="47.99573" lon="0.2446">
        <ele>61.3</ele>
        <time>2014-10-12T11:17:12Z</time>
      </trkpt>
      <trkpt lat="47.99574" lon="0.24468">
        <ele>61.4</ele>
        <time>2014-10-12T11:17:19Z</time>
      </trkpt>
      <trkpt lat="47.99574" lon="0.24477">
        <ele>61.6</ele>
        <time>2014-10-12T11:17:26Z</time>
      </trkpt>
      <trkpt lat="47.99575" lon="0.24487">
        <ele>61.8</ele>
        <time>2014-10-12T11:17:33Z</time>
      </trkpt>
      <trkpt lat="47.99575" lon="0.24488">
        <ele>62.1</ele>
        <time>2014-10-12T11:17:40Z</time>
      </trkpt>
      <trkpt lat="47.99575" lon="0.24488">
        <ele>62.1</ele>
        <time>2014-10-12T11:17:43Z</time>
      </trkpt>
      <trkpt lat="47.99579" lon="0.24496">
        <ele>62.4</ele>
        <time>2014-10-12T11:17:55Z</time>
      </trkpt>
      <trkpt lat="47.99579" lon="0.24496">
        <ele>62.4</ele>
        <time>2014-10-12T11:17:56Z</time>
      </trkpt>
      <trkpt lat="47.99582" lon="0.24506">
        <ele>62.1</ele>
        <time>2014-10-12T11:18:20Z</time>
      </trkpt>
      <trkpt lat="47.99582" lon="0.24517">
        <ele>62.1</ele>
        <time>2014-10-12T11:18:26Z</time>
      </trkpt>
      <trkpt lat="47.99583" lon="0.24529">
        <ele>61.9</ele>
        <time>2014-10-12T11:18:32Z</time>
      </trkpt>
      <trkpt lat="47.99584" lon="0.24539">
        <ele>61.8</ele>
        <time>2014-10-12T11:18:39Z</time>
      </trkpt>
      <trkpt lat="47.99585" lon="0.24551">
        <ele>61.4</ele>
        <time>2014-10-12T11:18:46Z</time>
      </trkpt>
      <trkpt lat="47.99587" lon="0.24561">
        <ele>60.7</ele>
        <time>2014-10-12T11:18:52Z</time>
      </trkpt>
      <trkpt lat="47.99589" lon="0.24571">
        <ele>60.4</ele>
        <time>2014-10-12T11:18:59Z</time>
      </trkpt>
      <trkpt lat="47.99591" lon="0.24583">
        <ele>59.9</ele>
        <time>2014-10-12T11:19:06Z</time>
      </trkpt>
      <trkpt lat="47.99589" lon="0.24592">
        <ele>59.5</ele>
        <time>2014-10-12T11:19:13Z</time>
      </trkpt>
      <trkpt lat="47.99589" lon="0.24601">
        <ele>59.4</ele>
        <time>2014-10-12T11:19:20Z</time>
      </trkpt>
      <trkpt lat="47.99591" lon="0.24612">
        <ele>59.2</ele>
        <time>2014-10-12T11:19:26Z</time>
      </trkpt>
      <trkpt lat="47.99595" lon="0.2462">
        <ele>59.1</ele>
        <time>2014-10-12T11:19:33Z</time>
      </trkpt>
      <trkpt lat="47.99597" lon="0.24631">
        <ele>59.3</ele>
        <time>2014-10-12T11:19:39Z</time>
      </trkpt>
      <trkpt lat="47.99601" lon="0.24641">
        <ele>59.4</ele>
        <time>2014-10-12T11:19:46Z</time>
      </trkpt>
      <trkpt lat="47.99603" lon="0.24652">
        <ele>59.4</ele>
        <time>2014-10-12T11:19:53Z</time>
      </trkpt>
      <trkpt lat="47.99603" lon="0.2466">
        <ele>59</ele>
        <time>2014-10-12T11:20:00Z</time>
      </trkpt>
      <trkpt lat="47.99605" lon="0.24671">
        <ele>58.6</ele>
        <time>2014-10-12T11:20:07Z</time>
      </trkpt>
      <trkpt lat="47.99609" lon="0.24681">
        <ele>58.6</ele>
        <time>2014-10-12T11:20:14Z</time>
      </trkpt>
      <trkpt lat="47.99612" lon="0.24693">
        <ele>58.2</ele>
        <time>2014-10-12T11:20:21Z</time>
      </trkpt>
      <trkpt lat="47.99616" lon="0.24705">
        <ele>58.1</ele>
        <time>2014-10-12T11:20:28Z</time>
      </trkpt>
      <trkpt lat="47.9962" lon="0.24714">
        <ele>57.9</ele>
        <time>2014-10-12T11:20:33Z</time>
      </trkpt>
      <trkpt lat="47.99624" lon="0.24724">
        <ele>57.7</ele>
        <time>2014-10-12T11:20:40Z</time>
      </trkpt>
      <trkpt lat="47.99627" lon="0.24735">
        <ele>57.3</ele>
        <time>2014-10-12T11:20:47Z</time>
      </trkpt>
      <trkpt lat="47.9963" lon="0.24746">
        <ele>56.9</ele>
        <time>2014-10-12T11:20:54Z</time>
      </trkpt>
      <trkpt lat="47.99632" lon="0.24754">
        <ele>56.6</ele>
        <time>2014-10-12T11:21:01Z</time>
      </trkpt>
      <trkpt lat="47.99634" lon="0.24757">
        <ele>56.7</ele>
        <time>2014-10-12T11:21:08Z</time>
      </trkpt>
      <trkpt lat="47.99636" lon="0.24766">
        <ele>56.7</ele>
        <time>2014-10-12T11:21:15Z</time>
      </trkpt>
      <trkpt lat="47.9964" lon="0.24774">
        <ele>56.8</ele>
        <time>2014-10-12T11:21:22Z</time>
      </trkpt>
      <trkpt lat="47.99645" lon="0.24783">
        <ele>56.9</ele>
        <time>2014-10-12T11:21:29Z</time>
      </trkpt>
      <trkpt lat="47.99649" lon="0.24792">
        <ele>56.7</ele>
        <time>2014-10-12T11:21:36Z</time>
      </trkpt>
      <trkpt lat="47.99655" lon="0.24801">
        <ele>56.6</ele>
        <time>2014-10-12T11:21:43Z</time>
      </trkpt>
      <trkpt lat="47.99659" lon="0.24808">
        <ele>56.8</ele>
        <time>2014-10-12T11:21:50Z</time>
      </trkpt>
      <trkpt lat="47.99664" lon="0.24817">
        <ele>56.9</ele>
        <time>2014-10-12T11:21:57Z</time>
      </trkpt>
      <trkpt lat="47.99668" lon="0.24825">
        <ele>56.7</ele>
        <time>2014-10-12T11:22:04Z</time>
      </trkpt>
      <trkpt lat="47.9967" lon="0.24828">
        <ele>56.6</ele>
        <time>2014-10-12T11:22:11Z</time>
      </trkpt>
      <trkpt lat="47.9967" lon="0.24827">
        <ele>56.6</ele>
        <time>2014-10-12T11:22:17Z</time>
      </trkpt>
      <trkpt lat="47.99676" lon="0.24834">
        <ele>56</ele>
        <time>2014-10-12T11:23:18Z</time>
      </trkpt>
      <trkpt lat="47.99678" lon="0.24842">
        <ele>56</ele>
        <time>2014-10-12T11:23:25Z</time>
      </trkpt>
      <trkpt lat="47.9968" lon="0.24848">
        <ele>56.3</ele>
        <time>2014-10-12T11:23:32Z</time>
      </trkpt>
      <trkpt lat="47.99684" lon="0.24854">
        <ele>56.6</ele>
        <time>2014-10-12T11:23:39Z</time>
      </trkpt>
      <trkpt lat="47.99691" lon="0.24862">
        <ele>56.6</ele>
        <time>2014-10-12T11:23:45Z</time>
      </trkpt>
      <trkpt lat="47.99696" lon="0.2487">
        <ele>56.6</ele>
        <time>2014-10-12T11:23:52Z</time>
      </trkpt>
      <trkpt lat="47.99703" lon="0.24876">
        <ele>56.7</ele>
        <time>2014-10-12T11:23:59Z</time>
      </trkpt>
      <trkpt lat="47.9971" lon="0.24883">
        <ele>56.9</ele>
        <time>2014-10-12T11:24:06Z</time>
      </trkpt>
      <trkpt lat="47.99715" lon="0.2489">
        <ele>57</ele>
        <time>2014-10-12T11:24:13Z</time>
      </trkpt>
      <trkpt lat="47.99721" lon="0.24898">
        <ele>56.8</ele>
        <time>2014-10-12T11:24:20Z</time>
      </trkpt>
      <trkpt lat="47.99725" lon="0.24903">
        <ele>56.7</ele>
        <time>2014-10-12T11:24:27Z</time>
      </trkpt>
      <trkpt lat="47.9973" lon="0.24908">
        <ele>56.7</ele>
        <time>2014-10-12T11:24:34Z</time>
      </trkpt>
      <trkpt lat="47.99749" lon="0.2492">
        <ele>57.6</ele>
        <time>2014-10-12T11:25:10Z</time>
      </trkpt>
      <trkpt lat="47.99751" lon="0.2492">
        <ele>57.8</ele>
        <time>2014-10-12T11:25:17Z</time>
      </trkpt>
      <trkpt lat="47.99752" lon="0.24921">
        <ele>57.9</ele>
        <time>2014-10-12T11:25:19Z</time>
      </trkpt>
      <trkpt lat="47.99755" lon="0.24923">
        <ele>58</ele>
        <time>2014-10-12T11:25:26Z</time>
      </trkpt>
      <trkpt lat="47.99761" lon="0.24925">
        <ele>57.9</ele>
        <time>2014-10-12T11:25:33Z</time>
      </trkpt>
      <trkpt lat="47.99765" lon="0.24932">
        <ele>57.6</ele>
        <time>2014-10-12T11:25:40Z</time>
      </trkpt>
      <trkpt lat="47.99767" lon="0.24936">
        <ele>57.6</ele>
        <time>2014-10-12T11:25:47Z</time>
      </trkpt>
      <trkpt lat="47.9977" lon="0.24944">
        <ele>57.6</ele>
        <time>2014-10-12T11:25:54Z</time>
      </trkpt>
      <trkpt lat="47.99775" lon="0.2495">
        <ele>57.6</ele>
        <time>2014-10-12T11:26:01Z</time>
      </trkpt>
      <trkpt lat="47.99781" lon="0.24955">
        <ele>57.6</ele>
        <time>2014-10-12T11:26:08Z</time>
      </trkpt>
      <trkpt lat="47.99788" lon="0.24959">
        <ele>57.7</ele>
        <time>2014-10-12T11:26:13Z</time>
      </trkpt>
      <trkpt lat="47.99794" lon="0.24963">
        <ele>57.3</ele>
        <time>2014-10-12T11:26:20Z</time>
      </trkpt>
      <trkpt lat="47.99799" lon="0.2497">
        <ele>57</ele>
        <time>2014-10-12T11:26:27Z</time>
      </trkpt>
      <trkpt lat="47.99803" lon="0.24979">
        <ele>56.8</ele>
        <time>2014-10-12T11:26:34Z</time>
      </trkpt>
      <trkpt lat="47.99807" lon="0.24987">
        <ele>56.6</ele>
        <time>2014-10-12T11:26:41Z</time>
      </trkpt>
      <trkpt lat="47.99814" lon="0.25">
        <ele>56.6</ele>
        <time>2014-10-12T11:26:48Z</time>
      </trkpt>
      <trkpt lat="47.99817" lon="0.25004">
        <ele>56.5</ele>
        <time>2014-10-12T11:26:55Z</time>
      </trkpt>
      <trkpt lat="47.99816" lon="0.25002">
        <ele>56.4</ele>
        <time>2014-10-12T11:27:02Z</time>
      </trkpt>
      <trkpt lat="47.99821" lon="0.2501">
        <ele>56.2</ele>
        <time>2014-10-12T11:27:09Z</time>
      </trkpt>
      <trkpt lat="47.99827" lon="0.25016">
        <ele>56.3</ele>
        <time>2014-10-12T11:27:16Z</time>
      </trkpt>
      <trkpt lat="47.99831" lon="0.25017">
        <ele>56.2</ele>
        <time>2014-10-12T11:27:23Z</time>
      </trkpt>
      <trkpt lat="47.99839" lon="0.25018">
        <ele>56.2</ele>
        <time>2014-10-12T11:27:30Z</time>
      </trkpt>
      <trkpt lat="47.99844" lon="0.25022">
        <ele>56.2</ele>
        <time>2014-10-12T11:27:37Z</time>
      </trkpt>
      <trkpt lat="47.9985" lon="0.25028">
        <ele>56.4</ele>
        <time>2014-10-12T11:27:44Z</time>
      </trkpt>
      <trkpt lat="47.99856" lon="0.25034">
        <ele>56.4</ele>
        <time>2014-10-12T11:27:50Z</time>
      </trkpt>
      <trkpt lat="47.99863" lon="0.25039">
        <ele>56.2</ele>
        <time>2014-10-12T11:27:56Z</time>
      </trkpt>
      <trkpt lat="47.99869" lon="0.25046">
        <ele>56.4</ele>
        <time>2014-10-12T11:28:01Z</time>
      </trkpt>
      <trkpt lat="47.99875" lon="0.25053">
        <ele>56.1</ele>
        <time>2014-10-12T11:28:06Z</time>
      </trkpt>
      <trkpt lat="47.99882" lon="0.25056">
        <ele>56.5</ele>
        <time>2014-10-12T11:28:13Z</time>
      </trkpt>
      <trkpt lat="47.99889" lon="0.2506">
        <ele>56.5</ele>
        <time>2014-10-12T11:28:19Z</time>
      </trkpt>
      <trkpt lat="47.99894" lon="0.25065">
        <ele>56.2</ele>
        <time>2014-10-12T11:28:26Z</time>
      </trkpt>
      <trkpt lat="47.99901" lon="0.25071">
        <ele>55.7</ele>
        <time>2014-10-12T11:28:32Z</time>
      </trkpt>
      <trkpt lat="47.99907" lon="0.25078">
        <ele>55.7</ele>
        <time>2014-10-12T11:28:38Z</time>
      </trkpt>
      <trkpt lat="47.99914" lon="0.25083">
        <ele>55.7</ele>
        <time>2014-10-12T11:28:45Z</time>
      </trkpt>
      <trkpt lat="47.9992" lon="0.25089">
        <ele>55.8</ele>
        <time>2014-10-12T11:28:52Z</time>
      </trkpt>
      <trkpt lat="47.99922" lon="0.25093">
        <ele>55.8</ele>
        <time>2014-10-12T11:28:59Z</time>
      </trkpt>
      <trkpt lat="47.99925" lon="0.25098">
        <ele>55.5</ele>
        <time>2014-10-12T11:29:06Z</time>
      </trkpt>
      <trkpt lat="47.99931" lon="0.25106">
        <ele>55.6</ele>
        <time>2014-10-12T11:29:12Z</time>
      </trkpt>
      <trkpt lat="47.99937" lon="0.25112">
        <ele>55.8</ele>
        <time>2014-10-12T11:29:17Z</time>
      </trkpt>
      <trkpt lat="47.99943" lon="0.25118">
        <ele>56</ele>
        <time>2014-10-12T11:29:24Z</time>
      </trkpt>
      <trkpt lat="47.99951" lon="0.25121">
        <ele>56.1</ele>
        <time>2014-10-12T11:29:31Z</time>
      </trkpt>
      <trkpt lat="47.99953" lon="0.25131">
        <ele>56.3</ele>
        <time>2014-10-12T11:29:37Z</time>
      </trkpt>
      <trkpt lat="47.99959" lon="0.25139">
        <ele>56.5</ele>
        <time>2014-10-12T11:29:43Z</time>
      </trkpt>
      <trkpt lat="47.99962" lon="0.25145">
        <ele>56.9</ele>
        <time>2014-10-12T11:29:50Z</time>
      </trkpt>
      <trkpt lat="47.99963" lon="0.25147">
        <ele>57.2</ele>
        <time>2014-10-12T11:29:57Z</time>
      </trkpt>
      <trkpt lat="47.99964" lon="0.25147">
        <ele>57.2</ele>
        <time>2014-10-12T11:30:04Z</time>
      </trkpt>
      <trkpt lat="47.99964" lon="0.25147">
        <ele>57.2</ele>
        <time>2014-10-12T11:30:05Z</time>
      </trkpt>
      <trkpt lat="47.99967" lon="0.25158">
        <ele>57.1</ele>
        <time>2014-10-12T11:30:51Z</time>
      </trkpt>
      <trkpt lat="47.99971" lon="0.25165">
        <ele>57.1</ele>
        <time>2014-10-12T11:30:58Z</time>
      </trkpt>
      <trkpt lat="47.99972" lon="0.25174">
        <ele>57</ele>
        <time>2014-10-12T11:31:05Z</time>
      </trkpt>
      <trkpt lat="47.99973" lon="0.25183">
        <ele>56.8</ele>
        <time>2014-10-12T11:31:12Z</time>
      </trkpt>
      <trkpt lat="47.99974" lon="0.25193">
        <ele>56.9</ele>
        <time>2014-10-12T11:31:19Z</time>
      </trkpt>
      <trkpt lat="47.99976" lon="0.25204">
        <ele>57.1</ele>
        <time>2014-10-12T11:31:26Z</time>
      </trkpt>
      <trkpt lat="47.99978" lon="0.25213">
        <ele>57.1</ele>
        <time>2014-10-12T11:31:33Z</time>
      </trkpt>
      <trkpt lat="47.99979" lon="0.25216">
        <ele>56.3</ele>
        <time>2014-10-12T11:31:40Z</time>
      </trkpt>
      <trkpt lat="47.99979" lon="0.25219">
        <ele>55.8</ele>
        <time>2014-10-12T11:31:47Z</time>
      </trkpt>
      <trkpt lat="47.99979" lon="0.25219">
        <ele>55.8</ele>
        <time>2014-10-12T11:31:54Z</time>
      </trkpt>
      <trkpt lat="47.99983" lon="0.25229">
        <ele>55.6</ele>
        <time>2014-10-12T11:33:37Z</time>
      </trkpt>
      <trkpt lat="47.99984" lon="0.25237">
        <ele>55.8</ele>
        <time>2014-10-12T11:33:44Z</time>
      </trkpt>
      <trkpt lat="47.99986" lon="0.25248">
        <ele>55.7</ele>
        <time>2014-10-12T11:33:51Z</time>
      </trkpt>
      <trkpt lat="47.99987" lon="0.25256">
        <ele>55.6</ele>
        <time>2014-10-12T11:33:58Z</time>
      </trkpt>
      <trkpt lat="47.99985" lon="0.25263">
        <ele>55.6</ele>
        <time>2014-10-12T11:34:05Z</time>
      </trkpt>
      <trkpt lat="47.99983" lon="0.25265">
        <ele>55.6</ele>
        <time>2014-10-12T11:34:12Z</time>
      </trkpt>
      <trkpt lat="47.99983" lon="0.25266">
        <ele>55.7</ele>
        <time>2014-10-12T11:34:17Z</time>
      </trkpt>
      <trkpt lat="47.99979" lon="0.25276">
        <ele>55.9</ele>
        <time>2014-10-12T11:34:51Z</time>
      </trkpt>
      <trkpt lat="47.99979" lon="0.25286">
        <ele>55.9</ele>
        <time>2014-10-12T11:34:58Z</time>
      </trkpt>
      <trkpt lat="47.99981" lon="0.25295">
        <ele>55.9</ele>
        <time>2014-10-12T11:35:05Z</time>
      </trkpt>
      <trkpt lat="47.99982" lon="0.25296">
        <ele>56</ele>
        <time>2014-10-12T11:35:12Z</time>
      </trkpt>
      <trkpt lat="47.99982" lon="0.25296">
        <ele>56</ele>
        <time>2014-10-12T11:35:17Z</time>
      </trkpt>
      <trkpt lat="47.99987" lon="0.25293">
        <ele>55.6</ele>
        <time>2014-10-12T11:36:00Z</time>
      </trkpt>
      <trkpt lat="47.99987" lon="0.25293">
        <ele>55.6</ele>
        <time>2014-10-12T11:36:04Z</time>
      </trkpt>
      <trkpt lat="47.99993" lon="0.25302">
        <ele>55.9</ele>
        <time>2014-10-12T11:36:11Z</time>
      </trkpt>
      <trkpt lat="47.99995" lon="0.25313">
        <ele>56</ele>
        <time>2014-10-12T11:36:16Z</time>
      </trkpt>
      <trkpt lat="48" lon="0.2532">
        <ele>55.9</ele>
        <time>2014-10-12T11:36:23Z</time>
      </trkpt>
      <trkpt lat="48.00006" lon="0.25326">
        <ele>55.8</ele>
        <time>2014-10-12T11:36:30Z</time>
      </trkpt>
      <trkpt lat="48.00013" lon="0.25331">
        <ele>56.1</ele>
        <time>2014-10-12T11:36:36Z</time>
      </trkpt>
      <trkpt lat="48.00021" lon="0.25335">
        <ele>56.3</ele>
        <time>2014-10-12T11:36:43Z</time>
      </trkpt>
      <trkpt lat="48.00029" lon="0.2534">
        <ele>56.3</ele>
        <time>2014-10-12T11:36:49Z</time>
      </trkpt>
      <trkpt lat="48.00035" lon="0.25344">
        <ele>55.9</ele>
        <time>2014-10-12T11:36:55Z</time>
      </trkpt>
      <trkpt lat="48.00042" lon="0.25348">
        <ele>55.7</ele>
        <time>2014-10-12T11:37:02Z</time>
      </trkpt>
      <trkpt lat="48.00048" lon="0.25354">
        <ele>55.6</ele>
        <time>2014-10-12T11:37:09Z</time>
      </trkpt>
      <trkpt lat="48.00052" lon="0.25364">
        <ele>55.6</ele>
        <time>2014-10-12T11:37:15Z</time>
      </trkpt>
      <trkpt lat="48.00055" lon="0.25376">
        <ele>55.6</ele>
        <time>2014-10-12T11:37:22Z</time>
      </trkpt>
      <trkpt lat="48.00054" lon="0.25386">
        <ele>56</ele>
        <time>2014-10-12T11:37:29Z</time>
      </trkpt>
      <trkpt lat="48.00057" lon="0.25393">
        <ele>55.9</ele>
        <time>2014-10-12T11:37:36Z</time>
      </trkpt>
      <trkpt lat="48.00058" lon="0.25394">
        <ele>56.1</ele>
        <time>2014-10-12T11:37:43Z</time>
      </trkpt>
      <trkpt lat="48.00058" lon="0.25394">
        <ele>56.1</ele>
        <time>2014-10-12T11:37:45Z</time>
      </trkpt>
      <trkpt lat="48.00059" lon="0.25403">
        <ele>55.8</ele>
        <time>2014-10-12T11:38:08Z</time>
      </trkpt>
      <trkpt lat="48.00063" lon="0.25413">
        <ele>55.6</ele>
        <time>2014-10-12T11:38:14Z</time>
      </trkpt>
      <trkpt lat="48.00065" lon="0.25423">
        <ele>55.4</ele>
        <time>2014-10-12T11:38:21Z</time>
      </trkpt>
      <trkpt lat="48.00069" lon="0.25433">
        <ele>55.3</ele>
        <time>2014-10-12T11:38:28Z</time>
      </trkpt>
      <trkpt lat="48.00074" lon="0.25442">
        <ele>55.1</ele>
        <time>2014-10-12T11:38:35Z</time>
      </trkpt>
      <trkpt lat="48.00079" lon="0.25451">
        <ele>55</ele>
        <time>2014-10-12T11:38:41Z</time>
      </trkpt>
      <trkpt lat="48.00084" lon="0.25453">
        <ele>54.1</ele>
        <time>2014-10-12T11:38:48Z</time>
      </trkpt>
      <trkpt lat="48.00083" lon="0.25453">
        <ele>53.9</ele>
        <time>2014-10-12T11:38:55Z</time>
      </trkpt>
      <trkpt lat="48.00077" lon="0.2546">
        <ele>53.5</ele>
        <time>2014-10-12T11:39:02Z</time>
      </trkpt>
      <trkpt lat="48.00078" lon="0.25461">
        <ele>53.1</ele>
        <time>2014-10-12T11:39:09Z</time>
      </trkpt>
      <trkpt lat="48.00078" lon="0.25461">
        <ele>53.1</ele>
        <time>2014-10-12T11:39:12Z</time>
      </trkpt>
      <trkpt lat="48.00082" lon="0.25468">
        <ele>52.7</ele>
        <time>2014-10-12T11:39:23Z</time>
      </trkpt>
      <trkpt lat="48.00084" lon="0.25474">
        <ele>52.4</ele>
        <time>2014-10-12T11:39:30Z</time>
      </trkpt>
      <trkpt lat="48.00085" lon="0.25474">
        <ele>52.2</ele>
        <time>2014-10-12T11:39:37Z</time>
      </trkpt>
      <trkpt lat="48.00085" lon="0.25474">
        <ele>52.2</ele>
        <time>2014-10-12T11:39:44Z</time>
      </trkpt>
      <trkpt lat="48.00091" lon="0.25481">
        <ele>52.4</ele>
        <time>2014-10-12T11:40:21Z</time>
      </trkpt>
      <trkpt lat="48.00095" lon="0.25489">
        <ele>52.4</ele>
        <time>2014-10-12T11:40:28Z</time>
      </trkpt>
      <trkpt lat="48.00094" lon="0.25489">
        <ele>52.4</ele>
        <time>2014-10-12T11:40:35Z</time>
      </trkpt>
      <trkpt lat="48.00096" lon="0.25494">
        <ele>52.5</ele>
        <time>2014-10-12T11:40:42Z</time>
      </trkpt>
      <trkpt lat="48.001" lon="0.25504">
        <ele>52.7</ele>
        <time>2014-10-12T11:40:49Z</time>
      </trkpt>
      <trkpt lat="48.00102" lon="0.25515">
        <ele>52.5</ele>
        <time>2014-10-12T11:40:56Z</time>
      </trkpt>
      <trkpt lat="48.00104" lon="0.25526">
        <ele>52.6</ele>
        <time>2014-10-12T11:41:01Z</time>
      </trkpt>
      <trkpt lat="48.00106" lon="0.25536">
        <ele>52.5</ele>
        <time>2014-10-12T11:41:08Z</time>
      </trkpt>
      <trkpt lat="48.00108" lon="0.25546">
        <ele>52.6</ele>
        <time>2014-10-12T11:41:15Z</time>
      </trkpt>
      <trkpt lat="48.0011" lon="0.25556">
        <ele>52.7</ele>
        <time>2014-10-12T11:41:21Z</time>
      </trkpt>
      <trkpt lat="48.00112" lon="0.25567">
        <ele>52.4</ele>
        <time>2014-10-12T11:41:28Z</time>
      </trkpt>
      <trkpt lat="48.00116" lon="0.25576">
        <ele>52.3</ele>
        <time>2014-10-12T11:41:35Z</time>
      </trkpt>
      <trkpt lat="48.00116" lon="0.2558">
        <ele>52.4</ele>
        <time>2014-10-12T11:41:42Z</time>
      </trkpt>
      <trkpt lat="48.00116" lon="0.2558">
        <ele>52.4</ele>
        <time>2014-10-12T11:41:44Z</time>
      </trkpt>
      <trkpt lat="48.00119" lon="0.25591">
        <ele>52.4</ele>
        <time>2014-10-12T11:41:51Z</time>
      </trkpt>
      <trkpt lat="48.00121" lon="0.25602">
        <ele>52.1</ele>
        <time>2014-10-12T11:41:56Z</time>
      </trkpt>
      <trkpt lat="48.00118" lon="0.25615">
        <ele>51.8</ele>
        <time>2014-10-12T11:42:03Z</time>
      </trkpt>
      <trkpt lat="48.00113" lon="0.25624">
        <ele>51.5</ele>
        <time>2014-10-12T11:42:10Z</time>
      </trkpt>
      <trkpt lat="48.00107" lon="0.2563">
        <ele>51.4</ele>
        <time>2014-10-12T11:42:16Z</time>
      </trkpt>
      <trkpt lat="48.001" lon="0.25637">
        <ele>51.7</ele>
        <time>2014-10-12T11:42:22Z</time>
      </trkpt>
      <trkpt lat="48.00097" lon="0.2564">
        <ele>51.8</ele>
        <time>2014-10-12T11:42:29Z</time>
      </trkpt>
      <trkpt lat="48.0009" lon="0.25648">
        <ele>51.7</ele>
        <time>2014-10-12T11:42:36Z</time>
      </trkpt>
      <trkpt lat="48.00083" lon="0.25654">
        <ele>51.7</ele>
        <time>2014-10-12T11:42:43Z</time>
      </trkpt>
      <trkpt lat="48.00075" lon="0.25658">
        <ele>51.6</ele>
        <time>2014-10-12T11:42:49Z</time>
      </trkpt>
      <trkpt lat="48.00068" lon="0.25665">
        <ele>51.7</ele>
        <time>2014-10-12T11:42:55Z</time>
      </trkpt>
      <trkpt lat="48.00061" lon="0.2567">
        <ele>51.6</ele>
        <time>2014-10-12T11:43:01Z</time>
      </trkpt>
      <trkpt lat="48.00054" lon="0.25676">
        <ele>51.8</ele>
        <time>2014-10-12T11:43:08Z</time>
      </trkpt>
      <trkpt lat="48.00047" lon="0.25681">
        <ele>51.8</ele>
        <time>2014-10-12T11:43:15Z</time>
      </trkpt>
      <trkpt lat="48.00041" lon="0.25686">
        <ele>51.7</ele>
        <time>2014-10-12T11:43:21Z</time>
      </trkpt>
      <trkpt lat="48.00033" lon="0.25692">
        <ele>52.1</ele>
        <time>2014-10-12T11:43:28Z</time>
      </trkpt>
      <trkpt lat="48.00029" lon="0.25703">
        <ele>52.8</ele>
        <time>2014-10-12T11:43:34Z</time>
      </trkpt>
      <trkpt lat="48.00024" lon="0.25712">
        <ele>53.7</ele>
        <time>2014-10-12T11:43:41Z</time>
      </trkpt>
      <trkpt lat="48.00021" lon="0.25721">
        <ele>53.8</ele>
        <time>2014-10-12T11:43:48Z</time>
      </trkpt>
      <trkpt lat="48.00015" lon="0.25729">
        <ele>54.3</ele>
        <time>2014-10-12T11:43:55Z</time>
      </trkpt>
      <trkpt lat="48.00011" lon="0.25741">
        <ele>54.6</ele>
        <time>2014-10-12T11:44:02Z</time>
      </trkpt>
      <trkpt lat="48.00008" lon="0.25751">
        <ele>54.7</ele>
        <time>2014-10-12T11:44:08Z</time>
      </trkpt>
      <trkpt lat="48.00005" lon="0.25761">
        <ele>55</ele>
        <time>2014-10-12T11:44:14Z</time>
      </trkpt>
      <trkpt lat="48.00001" lon="0.25771">
        <ele>55.4</ele>
        <time>2014-10-12T11:44:21Z</time>
      </trkpt>
      <trkpt lat="47.99997" lon="0.25781">
        <ele>55.5</ele>
        <time>2014-10-12T11:44:27Z</time>
      </trkpt>
      <trkpt lat="47.99994" lon="0.25793">
        <ele>55.6</ele>
        <time>2014-10-12T11:44:32Z</time>
      </trkpt>
      <trkpt lat="47.99991" lon="0.25804">
        <ele>55.8</ele>
        <time>2014-10-12T11:44:39Z</time>
      </trkpt>
      <trkpt lat="47.9999" lon="0.25815">
        <ele>56.4</ele>
        <time>2014-10-12T11:44:46Z</time>
      </trkpt>
      <trkpt lat="47.99987" lon="0.25819">
        <ele>56.8</ele>
        <time>2014-10-12T11:44:53Z</time>
      </trkpt>
      <trkpt lat="47.99983" lon="0.25829">
        <ele>56.8</ele>
        <time>2014-10-12T11:45:00Z</time>
      </trkpt>
      <trkpt lat="47.99977" lon="0.25836">
        <ele>57</ele>
        <time>2014-10-12T11:45:06Z</time>
      </trkpt>
      <trkpt lat="47.99973" lon="0.25845">
        <ele>57.2</ele>
        <time>2014-10-12T11:45:12Z</time>
      </trkpt>
      <trkpt lat="47.99966" lon="0.25854">
        <ele>57.2</ele>
        <time>2014-10-12T11:45:19Z</time>
      </trkpt>
      <trkpt lat="47.9996" lon="0.25861">
        <ele>57.1</ele>
        <time>2014-10-12T11:45:26Z</time>
      </trkpt>
      <trkpt lat="47.99955" lon="0.2587">
        <ele>57.3</ele>
        <time>2014-10-12T11:45:33Z</time>
      </trkpt>
      <trkpt lat="47.9995" lon="0.25879">
        <ele>57.4</ele>
        <time>2014-10-12T11:45:39Z</time>
      </trkpt>
      <trkpt lat="47.99943" lon="0.25883">
        <ele>57.6</ele>
        <time>2014-10-12T11:45:46Z</time>
      </trkpt>
      <trkpt lat="47.99938" lon="0.25889">
        <ele>57.7</ele>
        <time>2014-10-12T11:45:53Z</time>
      </trkpt>
      <trkpt lat="47.99938" lon="0.25891">
        <ele>57.6</ele>
        <time>2014-10-12T11:46:00Z</time>
      </trkpt>
      <trkpt lat="47.99933" lon="0.25897">
        <ele>57</ele>
        <time>2014-10-12T11:46:07Z</time>
      </trkpt>
      <trkpt lat="47.9993" lon="0.25904">
        <ele>57.1</ele>
        <time>2014-10-12T11:46:14Z</time>
      </trkpt>
      <trkpt lat="47.99927" lon="0.25908">
        <ele>57.2</ele>
        <time>2014-10-12T11:46:21Z</time>
      </trkpt>
      <trkpt lat="47.99923" lon="0.25914">
        <ele>56.9</ele>
        <time>2014-10-12T11:46:28Z</time>
      </trkpt>
      <trkpt lat="47.99919" lon="0.25919">
        <ele>57</ele>
        <time>2014-10-12T11:46:35Z</time>
      </trkpt>
      <trkpt lat="47.99911" lon="0.2592">
        <ele>57.2</ele>
        <time>2014-10-12T11:46:41Z</time>
      </trkpt>
      <trkpt lat="47.99903" lon="0.25923">
        <ele>57</ele>
        <time>2014-10-12T11:46:47Z</time>
      </trkpt>
      <trkpt lat="47.99895" lon="0.25929">
        <ele>57</ele>
        <time>2014-10-12T11:46:53Z</time>
      </trkpt>
      <trkpt lat="47.99889" lon="0.25936">
        <ele>57.2</ele>
        <time>2014-10-12T11:47:00Z</time>
      </trkpt>
      <trkpt lat="47.99883" lon="0.2594">
        <ele>57.5</ele>
        <time>2014-10-12T11:47:07Z</time>
      </trkpt>
      <trkpt lat="47.99878" lon="0.25946">
        <ele>57.4</ele>
        <time>2014-10-12T11:47:14Z</time>
      </trkpt>
      <trkpt lat="47.99874" lon="0.25953">
        <ele>57.3</ele>
        <time>2014-10-12T11:47:21Z</time>
      </trkpt>
      <trkpt lat="47.99871" lon="0.25953">
        <ele>57.3</ele>
        <time>2014-10-12T11:47:28Z</time>
      </trkpt>
      <trkpt lat="47.99871" lon="0.25953">
        <ele>57.3</ele>
        <time>2014-10-12T11:47:34Z</time>
      </trkpt>
      <trkpt lat="47.99866" lon="0.25957">
        <ele>57.9</ele>
        <time>2014-10-12T11:48:05Z</time>
      </trkpt>
      <trkpt lat="47.99865" lon="0.25955">
        <ele>58.1</ele>
        <time>2014-10-12T11:48:12Z</time>
      </trkpt>
      <trkpt lat="47.99865" lon="0.25955">
        <ele>58.2</ele>
        <time>2014-10-12T11:48:15Z</time>
      </trkpt>
      <trkpt lat="47.99858" lon="0.25959">
        <ele>58.3</ele>
        <time>2014-10-12T11:48:24Z</time>
      </trkpt>
      <trkpt lat="47.9985" lon="0.25958">
        <ele>58.3</ele>
        <time>2014-10-12T11:48:31Z</time>
      </trkpt>
      <trkpt lat="47.99843" lon="0.25959">
        <ele>58.3</ele>
        <time>2014-10-12T11:48:37Z</time>
      </trkpt>
      <trkpt lat="47.99835" lon="0.25959">
        <ele>58.2</ele>
        <time>2014-10-12T11:48:43Z</time>
      </trkpt>
      <trkpt lat="47.99827" lon="0.2596">
        <ele>58.2</ele>
        <time>2014-10-12T11:48:50Z</time>
      </trkpt>
      <trkpt lat="47.99821" lon="0.25959">
        <ele>58.1</ele>
        <time>2014-10-12T11:48:57Z</time>
      </trkpt>
      <trkpt lat="47.99814" lon="0.25959">
        <ele>58.2</ele>
        <time>2014-10-12T11:49:04Z</time>
      </trkpt>
      <trkpt lat="47.99808" lon="0.25963">
        <ele>58.1</ele>
        <time>2014-10-12T11:49:11Z</time>
      </trkpt>
      <trkpt lat="47.99801" lon="0.25967">
        <ele>58</ele>
        <time>2014-10-12T11:49:17Z</time>
      </trkpt>
      <trkpt lat="47.99793" lon="0.25975">
        <ele>58</ele>
        <time>2014-10-12T11:49:24Z</time>
      </trkpt>
      <trkpt lat="47.99788" lon="0.25982">
        <ele>57.8</ele>
        <time>2014-10-12T11:49:29Z</time>
      </trkpt>
      <trkpt lat="47.99783" lon="0.25988">
        <ele>57.7</ele>
        <time>2014-10-12T11:49:36Z</time>
      </trkpt>
      <trkpt lat="47.99776" lon="0.25996">
        <ele>57.7</ele>
        <time>2014-10-12T11:49:42Z</time>
      </trkpt>
      <trkpt lat="47.99771" lon="0.26003">
        <ele>57.7</ele>
        <time>2014-10-12T11:49:48Z</time>
      </trkpt>
      <trkpt lat="47.99769" lon="0.26014">
        <ele>57.7</ele>
        <time>2014-10-12T11:49:55Z</time>
      </trkpt>
      <trkpt lat="47.99766" lon="0.2602">
        <ele>57.6</ele>
        <time>2014-10-12T11:50:03Z</time>
      </trkpt>
      <trkpt lat="47.9976" lon="0.26024">
        <ele>57.4</ele>
        <time>2014-10-12T11:50:09Z</time>
      </trkpt>
      <trkpt lat="47.99753" lon="0.26027">
        <ele>57.2</ele>
        <time>2014-10-12T11:50:16Z</time>
      </trkpt>
      <trkpt lat="47.99748" lon="0.26029">
        <ele>57.3</ele>
        <time>2014-10-12T11:50:23Z</time>
      </trkpt>
      <trkpt lat="47.9974" lon="0.26034">
        <ele>57.5</ele>
        <time>2014-10-12T11:50:30Z</time>
      </trkpt>
      <trkpt lat="47.99734" lon="0.26041">
        <ele>57.5</ele>
        <time>2014-10-12T11:50:37Z</time>
      </trkpt>
      <trkpt lat="47.99725" lon="0.26048">
        <ele>57.5</ele>
        <time>2014-10-12T11:50:44Z</time>
      </trkpt>
      <trkpt lat="47.99718" lon="0.26055">
        <ele>57.5</ele>
        <time>2014-10-12T11:50:51Z</time>
      </trkpt>
      <trkpt lat="47.99712" lon="0.2606">
        <ele>57.5</ele>
        <time>2014-10-12T11:50:57Z</time>
      </trkpt>
      <trkpt lat="47.99705" lon="0.26066">
        <ele>57.3</ele>
        <time>2014-10-12T11:51:04Z</time>
      </trkpt>
      <trkpt lat="47.99698" lon="0.26071">
        <ele>57.3</ele>
        <time>2014-10-12T11:51:10Z</time>
      </trkpt>
      <trkpt lat="47.99692" lon="0.26079">
        <ele>57</ele>
        <time>2014-10-12T11:51:15Z</time>
      </trkpt>
      <trkpt lat="47.99686" lon="0.26086">
        <ele>56.6</ele>
        <time>2014-10-12T11:51:19Z</time>
      </trkpt>
      <trkpt lat="47.99682" lon="0.2609">
        <ele>56.7</ele>
        <time>2014-10-12T11:51:26Z</time>
      </trkpt>
      <trkpt lat="47.99678" lon="0.26096">
        <ele>56.8</ele>
        <time>2014-10-12T11:51:33Z</time>
      </trkpt>
      <trkpt lat="47.99673" lon="0.26103">
        <ele>56.3</ele>
        <time>2014-10-12T11:51:40Z</time>
      </trkpt>
      <trkpt lat="47.99665" lon="0.26108">
        <ele>56.3</ele>
        <time>2014-10-12T11:51:47Z</time>
      </trkpt>
      <trkpt lat="47.99657" lon="0.26111">
        <ele>56.4</ele>
        <time>2014-10-12T11:51:52Z</time>
      </trkpt>
      <trkpt lat="47.9965" lon="0.26116">
        <ele>56.4</ele>
        <time>2014-10-12T11:51:58Z</time>
      </trkpt>
      <trkpt lat="47.99646" lon="0.26121">
        <ele>56.4</ele>
        <time>2014-10-12T11:52:05Z</time>
      </trkpt>
      <trkpt lat="47.9964" lon="0.26128">
        <ele>56.4</ele>
        <time>2014-10-12T11:52:12Z</time>
      </trkpt>
      <trkpt lat="47.99634" lon="0.26137">
        <ele>56.2</ele>
        <time>2014-10-12T11:52:18Z</time>
      </trkpt>
      <trkpt lat="47.99627" lon="0.26142">
        <ele>56.3</ele>
        <time>2014-10-12T11:52:24Z</time>
      </trkpt>
      <trkpt lat="47.99621" lon="0.26148">
        <ele>56.1</ele>
        <time>2014-10-12T11:52:30Z</time>
      </trkpt>
      <trkpt lat="47.99614" lon="0.26154">
        <ele>55.9</ele>
        <time>2014-10-12T11:52:37Z</time>
      </trkpt>
      <trkpt lat="47.9961" lon="0.26163">
        <ele>55.9</ele>
        <time>2014-10-12T11:52:44Z</time>
      </trkpt>
      <trkpt lat="47.99602" lon="0.26165">
        <ele>56.1</ele>
        <time>2014-10-12T11:52:50Z</time>
      </trkpt>
      <trkpt lat="47.99594" lon="0.2617">
        <ele>56.5</ele>
        <time>2014-10-12T11:52:56Z</time>
      </trkpt>
      <trkpt lat="47.99588" lon="0.26176">
        <ele>57.3</ele>
        <time>2014-10-12T11:53:03Z</time>
      </trkpt>
      <trkpt lat="47.99584" lon="0.26182">
        <ele>57.9</ele>
        <time>2014-10-12T11:53:10Z</time>
      </trkpt>
      <trkpt lat="47.99584" lon="0.26184">
        <ele>58.1</ele>
        <time>2014-10-12T11:53:17Z</time>
      </trkpt>
      <trkpt lat="47.99579" lon="0.26191">
        <ele>58.3</ele>
        <time>2014-10-12T11:53:24Z</time>
      </trkpt>
      <trkpt lat="47.99575" lon="0.26198">
        <ele>58.6</ele>
        <time>2014-10-12T11:53:31Z</time>
      </trkpt>
      <trkpt lat="47.99572" lon="0.26206">
        <ele>58.9</ele>
        <time>2014-10-12T11:53:38Z</time>
      </trkpt>
      <trkpt lat="47.99573" lon="0.26215">
        <ele>59.1</ele>
        <time>2014-10-12T11:53:45Z</time>
      </trkpt>
      <trkpt lat="47.99568" lon="0.2622">
        <ele>59</ele>
        <time>2014-10-12T11:53:52Z</time>
      </trkpt>
      <trkpt lat="47.99568" lon="0.2622">
        <ele>59.1</ele>
        <time>2014-10-12T11:53:59Z</time>
      </trkpt>
      <trkpt lat="47.99568" lon="0.2622">
        <ele>59.1</ele>
        <time>2014-10-12T11:54:03Z</time>
      </trkpt>
      <trkpt lat="47.99564" lon="0.26217">
        <ele>59.1</ele>
        <time>2014-10-12T11:54:24Z</time>
      </trkpt>
      <trkpt lat="47.99557" lon="0.26217">
        <ele>59.3</ele>
        <time>2014-10-12T11:54:31Z</time>
      </trkpt>
      <trkpt lat="47.99554" lon="0.26219">
        <ele>59.4</ele>
        <time>2014-10-12T11:54:38Z</time>
      </trkpt>
      <trkpt lat="47.99554" lon="0.2622">
        <ele>59.3</ele>
        <time>2014-10-12T11:54:42Z</time>
      </trkpt>
      <trkpt lat="47.99551" lon="0.26222">
        <ele>59.6</ele>
        <time>2014-10-12T11:55:08Z</time>
      </trkpt>
      <trkpt lat="47.99551" lon="0.26222">
        <ele>59.6</ele>
        <time>2014-10-12T11:55:10Z</time>
      </trkpt>
      <trkpt lat="47.99548" lon="0.26229">
        <ele>60</ele>
        <time>2014-10-12T11:55:23Z</time>
      </trkpt>
      <trkpt lat="47.99541" lon="0.26234">
        <ele>60.1</ele>
        <time>2014-10-12T11:55:30Z</time>
      </trkpt>
      <trkpt lat="47.99533" lon="0.26237">
        <ele>60.4</ele>
        <time>2014-10-12T11:55:36Z</time>
      </trkpt>
      <trkpt lat="47.99526" lon="0.26239">
        <ele>60.6</ele>
        <time>2014-10-12T11:55:42Z</time>
      </trkpt>
      <trkpt lat="47.9952" lon="0.26245">
        <ele>61.1</ele>
        <time>2014-10-12T11:55:49Z</time>
      </trkpt>
      <trkpt lat="47.99516" lon="0.26248">
        <ele>61.3</ele>
        <time>2014-10-12T11:55:56Z</time>
      </trkpt>
      <trkpt lat="47.99514" lon="0.26255">
        <ele>61.7</ele>
        <time>2014-10-12T11:56:03Z</time>
      </trkpt>
      <trkpt lat="47.99513" lon="0.26257">
        <ele>61.8</ele>
        <time>2014-10-12T11:56:10Z</time>
      </trkpt>
      <trkpt lat="47.99513" lon="0.26257">
        <ele>61.8</ele>
        <time>2014-10-12T11:56:11Z</time>
      </trkpt>
      <trkpt lat="47.9951" lon="0.26262">
        <ele>61.9</ele>
        <time>2014-10-12T11:56:44Z</time>
      </trkpt>
      <trkpt lat="47.99505" lon="0.26267">
        <ele>61.8</ele>
        <time>2014-10-12T11:56:51Z</time>
      </trkpt>
      <trkpt lat="47.99499" lon="0.26275">
        <ele>61.8</ele>
        <time>2014-10-12T11:56:58Z</time>
      </trkpt>
      <trkpt lat="47.99492" lon="0.26281">
        <ele>61.8</ele>
        <time>2014-10-12T11:57:03Z</time>
      </trkpt>
      <trkpt lat="47.99485" lon="0.26285">
        <ele>62</ele>
        <time>2014-10-12T11:57:07Z</time>
      </trkpt>
      <trkpt lat="47.99478" lon="0.26287">
        <ele>62.2</ele>
        <time>2014-10-12T11:57:14Z</time>
      </trkpt>
      <trkpt lat="47.99474" lon="0.26294">
        <ele>62.5</ele>
        <time>2014-10-12T11:57:21Z</time>
      </trkpt>
      <trkpt lat="47.9947" lon="0.26302">
        <ele>62.5</ele>
        <time>2014-10-12T11:57:28Z</time>
      </trkpt>
      <trkpt lat="47.99462" lon="0.26307">
        <ele>62.6</ele>
        <time>2014-10-12T11:57:33Z</time>
      </trkpt>
      <trkpt lat="47.99456" lon="0.26314">
        <ele>63</ele>
        <time>2014-10-12T11:57:40Z</time>
      </trkpt>
      <trkpt lat="47.99449" lon="0.2632">
        <ele>63.3</ele>
        <time>2014-10-12T11:57:47Z</time>
      </trkpt>
      <trkpt lat="47.99441" lon="0.26323">
        <ele>63.5</ele>
        <time>2014-10-12T11:57:53Z</time>
      </trkpt>
      <trkpt lat="47.99434" lon="0.26322">
        <ele>63.8</ele>
        <time>2014-10-12T11:58:00Z</time>
      </trkpt>
      <trkpt lat="47.99426" lon="0.26322">
        <ele>64.1</ele>
        <time>2014-10-12T11:58:06Z</time>
      </trkpt>
      <trkpt lat="47.99418" lon="0.26321">
        <ele>64.1</ele>
        <time>2014-10-12T11:58:11Z</time>
      </trkpt>
      <trkpt lat="47.99409" lon="0.26316">
        <ele>64.2</ele>
        <time>2014-10-12T11:58:16Z</time>
      </trkpt>
      <trkpt lat="47.99401" lon="0.26312">
        <ele>64.3</ele>
        <time>2014-10-12T11:58:22Z</time>
      </trkpt>
      <trkpt lat="47.99393" lon="0.2631">
        <ele>64.3</ele>
        <time>2014-10-12T11:58:27Z</time>
      </trkpt>
      <trkpt lat="47.99385" lon="0.26311">
        <ele>64.6</ele>
        <time>2014-10-12T11:58:31Z</time>
      </trkpt>
      <trkpt lat="47.99383" lon="0.26312">
        <ele>64.7</ele>
        <time>2014-10-12T11:58:38Z</time>
      </trkpt>
      <trkpt lat="47.99383" lon="0.26312">
        <ele>64.7</ele>
        <time>2014-10-12T11:58:39Z</time>
      </trkpt>
      <trkpt lat="47.99371" lon="0.26319">
        <ele>65.2</ele>
        <time>2014-10-12T11:58:43Z</time>
      </trkpt>
      <trkpt lat="47.99363" lon="0.26314">
        <ele>64.8</ele>
        <time>2014-10-12T11:58:47Z</time>
      </trkpt>
      <trkpt lat="47.99354" lon="0.26309">
        <ele>64.4</ele>
        <time>2014-10-12T11:58:54Z</time>
      </trkpt>
      <trkpt lat="47.9935" lon="0.26313">
        <ele>64</ele>
        <time>2014-10-12T11:59:01Z</time>
      </trkpt>
      <trkpt lat="47.9935" lon="0.26319">
        <ele>63.6</ele>
        <time>2014-10-12T11:59:08Z</time>
      </trkpt>
      <trkpt lat="47.9935" lon="0.26319">
        <ele>63.6</ele>
        <time>2014-10-12T11:59:13Z</time>
      </trkpt>
      <trkpt lat="47.99353" lon="0.2633">
        <ele>63.6</ele>
        <time>2014-10-12T11:59:23Z</time>
      </trkpt>
      <trkpt lat="47.99354" lon="0.26327">
        <ele>63.6</ele>
        <time>2014-10-12T11:59:30Z</time>
      </trkpt>
      <trkpt lat="47.99354" lon="0.26327">
        <ele>63.6</ele>
        <time>2014-10-12T11:59:37Z</time>
      </trkpt>
      <trkpt lat="47.99351" lon="0.26316">
        <ele>63.9</ele>
        <time>2014-10-12T11:59:58Z</time>
      </trkpt>
      <trkpt lat="47.99345" lon="0.26313">
        <ele>64.5</ele>
        <time>2014-10-12T12:00:05Z</time>
      </trkpt>
      <trkpt lat="47.99341" lon="0.26309">
        <ele>64.8</ele>
        <time>2014-10-12T12:00:12Z</time>
      </trkpt>
      <trkpt lat="47.99338" lon="0.26305">
        <ele>65.2</ele>
        <time>2014-10-12T12:00:19Z</time>
      </trkpt>
      <trkpt lat="47.9933" lon="0.26303">
        <ele>65.6</ele>
        <time>2014-10-12T12:00:23Z</time>
      </trkpt>
      <trkpt lat="47.99327" lon="0.26303">
        <ele>65.8</ele>
        <time>2014-10-12T12:00:30Z</time>
      </trkpt>
      <trkpt lat="47.99319" lon="0.26302">
        <ele>66</ele>
        <time>2014-10-12T12:00:37Z</time>
      </trkpt>
      <trkpt lat="47.99312" lon="0.26298">
        <ele>66.1</ele>
        <time>2014-10-12T12:00:41Z</time>
      </trkpt>
      <trkpt lat="47.9931" lon="0.26298">
        <ele>66.2</ele>
        <time>2014-10-12T12:00:48Z</time>
      </trkpt>
      <trkpt lat="47.99302" lon="0.26294">
        <ele>66</ele>
        <time>2014-10-12T12:00:55Z</time>
      </trkpt>
      <trkpt lat="47.99295" lon="0.26292">
        <ele>65.7</ele>
        <time>2014-10-12T12:01:02Z</time>
      </trkpt>
      <trkpt lat="47.99294" lon="0.26292">
        <ele>65.3</ele>
        <time>2014-10-12T12:01:09Z</time>
      </trkpt>
      <trkpt lat="47.99294" lon="0.26292">
        <ele>65.3</ele>
        <time>2014-10-12T12:01:11Z</time>
      </trkpt>
      <trkpt lat="47.99286" lon="0.26296">
        <ele>66</ele>
        <time>2014-10-12T12:01:30Z</time>
      </trkpt>
      <trkpt lat="47.9929" lon="0.26299">
        <ele>63.7</ele>
        <time>2014-10-12T12:02:12Z</time>
      </trkpt>
      <trkpt lat="47.9929" lon="0.26299">
        <ele>63.7</ele>
        <time>2014-10-12T12:02:15Z</time>
      </trkpt>
      <trkpt lat="47.99286" lon="0.26288">
        <ele>65.3</ele>
        <time>2014-10-12T12:02:57Z</time>
      </trkpt>
      <trkpt lat="47.9928" lon="0.26282">
        <ele>66.5</ele>
        <time>2014-10-12T12:03:04Z</time>
      </trkpt>
      <trkpt lat="47.99276" lon="0.26285">
        <ele>66.8</ele>
        <time>2014-10-12T12:03:11Z</time>
      </trkpt>
      <trkpt lat="47.99276" lon="0.26286">
        <ele>66.7</ele>
        <time>2014-10-12T12:03:17Z</time>
      </trkpt>
      <trkpt lat="47.9927" lon="0.26295">
        <ele>68.9</ele>
        <time>2014-10-12T12:03:52Z</time>
      </trkpt>
      <trkpt lat="47.99267" lon="0.26298">
        <ele>69</ele>
        <time>2014-10-12T12:03:59Z</time>
      </trkpt>
      <trkpt lat="47.99266" lon="0.26298">
        <ele>68.5</ele>
        <time>2014-10-12T12:04:05Z</time>
      </trkpt>
      <trkpt lat="47.99266" lon="0.26295">
        <ele>68.4</ele>
        <time>2014-10-12T12:04:59Z</time>
      </trkpt>
      <trkpt lat="47.99267" lon="0.26294">
        <ele>68.6</ele>
        <time>2014-10-12T12:05:06Z</time>
      </trkpt>
      <trkpt lat="47.99267" lon="0.26294">
        <ele>68.6</ele>
        <time>2014-10-12T12:05:12Z</time>
      </trkpt>
      <trkpt lat="47.99273" lon="0.263">
        <ele>72</ele>
        <time>2014-10-12T12:18:49Z</time>
      </trkpt>
      <trkpt lat="47.99278" lon="0.26296">
        <ele>72.2</ele>
        <time>2014-10-12T12:18:56Z</time>
      </trkpt>
      <trkpt lat="47.99278" lon="0.26294">
        <ele>72.5</ele>
        <time>2014-10-12T12:19:03Z</time>
      </trkpt>
      <trkpt lat="47.99278" lon="0.26294">
        <ele>72.5</ele>
        <time>2014-10-12T12:19:10Z</time>
      </trkpt>
      <trkpt lat="47.99279" lon="0.26283">
        <ele>72.7</ele>
        <time>2014-10-12T12:19:30Z</time>
      </trkpt>
      <trkpt lat="47.99278" lon="0.26276">
        <ele>72.8</ele>
        <time>2014-10-12T12:19:37Z</time>
      </trkpt>
      <trkpt lat="47.99276" lon="0.26268">
        <ele>72.9</ele>
        <time>2014-10-12T12:19:44Z</time>
      </trkpt>
      <trkpt lat="47.99275" lon="0.26256">
        <ele>72.9</ele>
        <time>2014-10-12T12:19:51Z</time>
      </trkpt>
      <trkpt lat="47.99272" lon="0.26245">
        <ele>72.8</ele>
        <time>2014-10-12T12:19:58Z</time>
      </trkpt>
      <trkpt lat="47.99271" lon="0.26233">
        <ele>73</ele>
        <time>2014-10-12T12:20:05Z</time>
      </trkpt>
      <trkpt lat="47.99263" lon="0.26223">
        <ele>72.9</ele>
        <time>2014-10-12T12:20:10Z</time>
      </trkpt>
      <trkpt lat="47.99257" lon="0.26216">
        <ele>72.7</ele>
        <time>2014-10-12T12:20:16Z</time>
      </trkpt>
      <trkpt lat="47.99253" lon="0.26208">
        <ele>72.6</ele>
        <time>2014-10-12T12:20:23Z</time>
      </trkpt>
      <trkpt lat="47.99251" lon="0.262">
        <ele>72.6</ele>
        <time>2014-10-12T12:20:30Z</time>
      </trkpt>
      <trkpt lat="47.9925" lon="0.26191">
        <ele>72.6</ele>
        <time>2014-10-12T12:20:37Z</time>
      </trkpt>
      <trkpt lat="47.99252" lon="0.26182">
        <ele>72.6</ele>
        <time>2014-10-12T12:20:44Z</time>
      </trkpt>
      <trkpt lat="47.99254" lon="0.26171">
        <ele>72.8</ele>
        <time>2014-10-12T12:20:50Z</time>
      </trkpt>
      <trkpt lat="47.99253" lon="0.26159">
        <ele>72.7</ele>
        <time>2014-10-12T12:20:55Z</time>
      </trkpt>
      <trkpt lat="47.99252" lon="0.26149">
        <ele>72.7</ele>
        <time>2014-10-12T12:21:02Z</time>
      </trkpt>
      <trkpt lat="47.99249" lon="0.26139">
        <ele>72.5</ele>
        <time>2014-10-12T12:21:09Z</time>
      </trkpt>
      <trkpt lat="47.99246" lon="0.26127">
        <ele>72.6</ele>
        <time>2014-10-12T12:21:16Z</time>
      </trkpt>
      <trkpt lat="47.99244" lon="0.2612">
        <ele>72.9</ele>
        <time>2014-10-12T12:21:23Z</time>
      </trkpt>
      <trkpt lat="47.99243" lon="0.26112">
        <ele>73.3</ele>
        <time>2014-10-12T12:21:30Z</time>
      </trkpt>
      <trkpt lat="47.99241" lon="0.26105">
        <ele>73.5</ele>
        <time>2014-10-12T12:21:37Z</time>
      </trkpt>
      <trkpt lat="47.99239" lon="0.26103">
        <ele>73.6</ele>
        <time>2014-10-12T12:21:44Z</time>
      </trkpt>
      <trkpt lat="47.99238" lon="0.26092">
        <ele>74.1</ele>
        <time>2014-10-12T12:21:51Z</time>
      </trkpt>
      <trkpt lat="47.9924" lon="0.26083">
        <ele>74.8</ele>
        <time>2014-10-12T12:21:58Z</time>
      </trkpt>
      <trkpt lat="47.99242" lon="0.26077">
        <ele>75.1</ele>
        <time>2014-10-12T12:22:05Z</time>
      </trkpt>
      <trkpt lat="47.99245" lon="0.26071">
        <ele>75.3</ele>
        <time>2014-10-12T12:22:12Z</time>
      </trkpt>
      <trkpt lat="47.99249" lon="0.26063">
        <ele>75.5</ele>
        <time>2014-10-12T12:22:19Z</time>
      </trkpt>
      <trkpt lat="47.99254" lon="0.26053">
        <ele>75.6</ele>
        <time>2014-10-12T12:22:25Z</time>
      </trkpt>
      <trkpt lat="47.99257" lon="0.26041">
        <ele>75.9</ele>
        <time>2014-10-12T12:22:32Z</time>
      </trkpt>
      <trkpt lat="47.99258" lon="0.26035">
        <ele>76</ele>
        <time>2014-10-12T12:22:39Z</time>
      </trkpt>
      <trkpt lat="47.99261" lon="0.26033">
        <ele>76.4</ele>
        <time>2014-10-12T12:22:46Z</time>
      </trkpt>
      <trkpt lat="47.9926" lon="0.26034">
        <ele>76.4</ele>
        <time>2014-10-12T12:22:53Z</time>
      </trkpt>
      <trkpt lat="47.9926" lon="0.26034">
        <ele>76.4</ele>
        <time>2014-10-12T12:22:55Z</time>
      </trkpt>
      <trkpt lat="47.99267" lon="0.26028">
        <ele>76.5</ele>
        <time>2014-10-12T12:23:15Z</time>
      </trkpt>
      <trkpt lat="47.99276" lon="0.26025">
        <ele>76.4</ele>
        <time>2014-10-12T12:23:22Z</time>
      </trkpt>
      <trkpt lat="47.99283" lon="0.2602">
        <ele>76.4</ele>
        <time>2014-10-12T12:23:29Z</time>
      </trkpt>
      <trkpt lat="47.99288" lon="0.26017">
        <ele>76.5</ele>
        <time>2014-10-12T12:23:36Z</time>
      </trkpt>
      <trkpt lat="47.99295" lon="0.26012">
        <ele>76.4</ele>
        <time>2014-10-12T12:23:43Z</time>
      </trkpt>
      <trkpt lat="47.99301" lon="0.26004">
        <ele>76.6</ele>
        <time>2014-10-12T12:23:49Z</time>
      </trkpt>
      <trkpt lat="47.99308" lon="0.25999">
        <ele>76.6</ele>
        <time>2014-10-12T12:23:56Z</time>
      </trkpt>
      <trkpt lat="47.99312" lon="0.25994">
        <ele>76.6</ele>
        <time>2014-10-12T12:24:03Z</time>
      </trkpt>
      <trkpt lat="47.99316" lon="0.25987">
        <ele>76.3</ele>
        <time>2014-10-12T12:24:10Z</time>
      </trkpt>
      <trkpt lat="47.99321" lon="0.2598">
        <ele>76.2</ele>
        <time>2014-10-12T12:24:17Z</time>
      </trkpt>
      <trkpt lat="47.99327" lon="0.25973">
        <ele>75.9</ele>
        <time>2014-10-12T12:24:24Z</time>
      </trkpt>
      <trkpt lat="47.99335" lon="0.25969">
        <ele>75.8</ele>
        <time>2014-10-12T12:24:31Z</time>
      </trkpt>
      <trkpt lat="47.99341" lon="0.25962">
        <ele>75.5</ele>
        <time>2014-10-12T12:24:38Z</time>
      </trkpt>
      <trkpt lat="47.99345" lon="0.25953">
        <ele>75.4</ele>
        <time>2014-10-12T12:24:44Z</time>
      </trkpt>
      <trkpt lat="47.99351" lon="0.25944">
        <ele>75.3</ele>
        <time>2014-10-12T12:24:51Z</time>
      </trkpt>
      <trkpt lat="47.99354" lon="0.25935">
        <ele>75.4</ele>
        <time>2014-10-12T12:24:58Z</time>
      </trkpt>
      <trkpt lat="47.9936" lon="0.25927">
        <ele>75.3</ele>
        <time>2014-10-12T12:25:02Z</time>
      </trkpt>
      <trkpt lat="47.99361" lon="0.25916">
        <ele>75.2</ele>
        <time>2014-10-12T12:25:07Z</time>
      </trkpt>
      <trkpt lat="47.99366" lon="0.25907">
        <ele>75.1</ele>
        <time>2014-10-12T12:25:13Z</time>
      </trkpt>
      <trkpt lat="47.99369" lon="0.25897">
        <ele>75</ele>
        <time>2014-10-12T12:25:20Z</time>
      </trkpt>
      <trkpt lat="47.99371" lon="0.25888">
        <ele>74.7</ele>
        <time>2014-10-12T12:25:27Z</time>
      </trkpt>
      <trkpt lat="47.99372" lon="0.25878">
        <ele>74.4</ele>
        <time>2014-10-12T12:25:32Z</time>
      </trkpt>
      <trkpt lat="47.9937" lon="0.25867">
        <ele>74.2</ele>
        <time>2014-10-12T12:25:37Z</time>
      </trkpt>
      <trkpt lat="47.99371" lon="0.25856">
        <ele>74.1</ele>
        <time>2014-10-12T12:25:44Z</time>
      </trkpt>
      <trkpt lat="47.99369" lon="0.25844">
        <ele>74.1</ele>
        <time>2014-10-12T12:25:51Z</time>
      </trkpt>
      <trkpt lat="47.99368" lon="0.25833">
        <ele>74.1</ele>
        <time>2014-10-12T12:25:57Z</time>
      </trkpt>
      <trkpt lat="47.99366" lon="0.25821">
        <ele>74.1</ele>
        <time>2014-10-12T12:26:04Z</time>
      </trkpt>
      <trkpt lat="47.99362" lon="0.25811">
        <ele>73.9</ele>
        <time>2014-10-12T12:26:10Z</time>
      </trkpt>
      <trkpt lat="47.9936" lon="0.258">
        <ele>73.7</ele>
        <time>2014-10-12T12:26:17Z</time>
      </trkpt>
      <trkpt lat="47.99356" lon="0.25789">
        <ele>73.1</ele>
        <time>2014-10-12T12:26:23Z</time>
      </trkpt>
      <trkpt lat="47.99351" lon="0.25781">
        <ele>72.7</ele>
        <time>2014-10-12T12:26:28Z</time>
      </trkpt>
      <trkpt lat="47.99349" lon="0.25773">
        <ele>72.4</ele>
        <time>2014-10-12T12:26:35Z</time>
      </trkpt>
      <trkpt lat="47.99345" lon="0.25761">
        <ele>72.2</ele>
        <time>2014-10-12T12:26:42Z</time>
      </trkpt>
      <trkpt lat="47.99342" lon="0.2575">
        <ele>72.1</ele>
        <time>2014-10-12T12:26:47Z</time>
      </trkpt>
      <trkpt lat="47.99339" lon="0.25741">
        <ele>71.8</ele>
        <time>2014-10-12T12:26:53Z</time>
      </trkpt>
      <trkpt lat="47.9934" lon="0.2573">
        <ele>71.1</ele>
        <time>2014-10-12T12:27:00Z</time>
      </trkpt>
      <trkpt lat="47.99343" lon="0.2572">
        <ele>70.9</ele>
        <time>2014-10-12T12:27:07Z</time>
      </trkpt>
      <trkpt lat="47.99347" lon="0.25712">
        <ele>71.2</ele>
        <time>2014-10-12T12:27:13Z</time>
      </trkpt>
      <trkpt lat="47.99354" lon="0.25709">
        <ele>71</ele>
        <time>2014-10-12T12:27:20Z</time>
      </trkpt>
      <trkpt lat="47.99359" lon="0.25704">
        <ele>70.7</ele>
        <time>2014-10-12T12:27:27Z</time>
      </trkpt>
      <trkpt lat="47.99364" lon="0.257">
        <ele>70.2</ele>
        <time>2014-10-12T12:27:34Z</time>
      </trkpt>
      <trkpt lat="47.99367" lon="0.25696">
        <ele>69.8</ele>
        <time>2014-10-12T12:27:41Z</time>
      </trkpt>
      <trkpt lat="47.99369" lon="0.25693">
        <ele>69.3</ele>
        <time>2014-10-12T12:27:48Z</time>
      </trkpt>
      <trkpt lat="47.99369" lon="0.25694">
        <ele>69.2</ele>
        <time>2014-10-12T12:27:55Z</time>
      </trkpt>
      <trkpt lat="47.99369" lon="0.25694">
        <ele>69.2</ele>
        <time>2014-10-12T12:27:56Z</time>
      </trkpt>
      <trkpt lat="47.99376" lon="0.25688">
        <ele>68.9</ele>
        <time>2014-10-12T12:28:02Z</time>
      </trkpt>
      <trkpt lat="47.99384" lon="0.25685">
        <ele>68.3</ele>
        <time>2014-10-12T12:28:08Z</time>
      </trkpt>
      <trkpt lat="47.9939" lon="0.25679">
        <ele>67.9</ele>
        <time>2014-10-12T12:28:14Z</time>
      </trkpt>
      <trkpt lat="47.99397" lon="0.25674">
        <ele>67.3</ele>
        <time>2014-10-12T12:28:21Z</time>
      </trkpt>
      <trkpt lat="47.99402" lon="0.25666">
        <ele>66.7</ele>
        <time>2014-10-12T12:28:28Z</time>
      </trkpt>
      <trkpt lat="47.99407" lon="0.25658">
        <ele>66.4</ele>
        <time>2014-10-12T12:28:35Z</time>
      </trkpt>
      <trkpt lat="47.99413" lon="0.2565">
        <ele>65.9</ele>
        <time>2014-10-12T12:28:40Z</time>
      </trkpt>
      <trkpt lat="47.99416" lon="0.25645">
        <ele>65.5</ele>
        <time>2014-10-12T12:28:47Z</time>
      </trkpt>
      <trkpt lat="47.99423" lon="0.25637">
        <ele>64.9</ele>
        <time>2014-10-12T12:28:52Z</time>
      </trkpt>
      <trkpt lat="47.99422" lon="0.25626">
        <ele>64.3</ele>
        <time>2014-10-12T12:28:59Z</time>
      </trkpt>
      <trkpt lat="47.99417" lon="0.25619">
        <ele>63.5</ele>
        <time>2014-10-12T12:29:04Z</time>
      </trkpt>
      <trkpt lat="47.99413" lon="0.25609">
        <ele>63</ele>
        <time>2014-10-12T12:29:09Z</time>
      </trkpt>
      <trkpt lat="47.99406" lon="0.25601">
        <ele>62.5</ele>
        <time>2014-10-12T12:29:16Z</time>
      </trkpt>
      <trkpt lat="47.99403" lon="0.2559">
        <ele>62.1</ele>
        <time>2014-10-12T12:29:22Z</time>
      </trkpt>
      <trkpt lat="47.99399" lon="0.2558">
        <ele>61.9</ele>
        <time>2014-10-12T12:29:28Z</time>
      </trkpt>
      <trkpt lat="47.99398" lon="0.25572">
        <ele>61.4</ele>
        <time>2014-10-12T12:29:35Z</time>
      </trkpt>
      <trkpt lat="47.99395" lon="0.25562">
        <ele>61.1</ele>
        <time>2014-10-12T12:29:41Z</time>
      </trkpt>
      <trkpt lat="47.99391" lon="0.25553">
        <ele>60.8</ele>
        <time>2014-10-12T12:29:47Z</time>
      </trkpt>
      <trkpt lat="47.99388" lon="0.25543">
        <ele>60.5</ele>
        <time>2014-10-12T12:29:53Z</time>
      </trkpt>
      <trkpt lat="47.99387" lon="0.25531">
        <ele>60.2</ele>
        <time>2014-10-12T12:30:00Z</time>
      </trkpt>
      <trkpt lat="47.99388" lon="0.2552">
        <ele>59.9</ele>
        <time>2014-10-12T12:30:06Z</time>
      </trkpt>
      <trkpt lat="47.99388" lon="0.25509">
        <ele>59.8</ele>
        <time>2014-10-12T12:30:13Z</time>
      </trkpt>
      <trkpt lat="47.99389" lon="0.25498">
        <ele>59.8</ele>
        <time>2014-10-12T12:30:20Z</time>
      </trkpt>
      <trkpt lat="47.9939" lon="0.25489">
        <ele>59.9</ele>
        <time>2014-10-12T12:30:27Z</time>
      </trkpt>
      <trkpt lat="47.99387" lon="0.25477">
        <ele>59.8</ele>
        <time>2014-10-12T12:30:32Z</time>
      </trkpt>
      <trkpt lat="47.99385" lon="0.25464">
        <ele>59.5</ele>
        <time>2014-10-12T12:30:38Z</time>
      </trkpt>
      <trkpt lat="47.99384" lon="0.25453">
        <ele>59.1</ele>
        <time>2014-10-12T12:30:44Z</time>
      </trkpt>
      <trkpt lat="47.99382" lon="0.25441">
        <ele>59.1</ele>
        <time>2014-10-12T12:30:51Z</time>
      </trkpt>
      <trkpt lat="47.99381" lon="0.25428">
        <ele>59</ele>
        <time>2014-10-12T12:30:57Z</time>
      </trkpt>
      <trkpt lat="47.9938" lon="0.25417">
        <ele>58.4</ele>
        <time>2014-10-12T12:31:03Z</time>
      </trkpt>
      <trkpt lat="47.99384" lon="0.25417">
        <ele>57.8</ele>
        <time>2014-10-12T12:31:10Z</time>
      </trkpt>
      <trkpt lat="47.9939" lon="0.25416">
        <ele>57.6</ele>
        <time>2014-10-12T12:31:17Z</time>
      </trkpt>
      <trkpt lat="47.99396" lon="0.25418">
        <ele>57.5</ele>
        <time>2014-10-12T12:31:24Z</time>
      </trkpt>
      <trkpt lat="47.99401" lon="0.25416">
        <ele>57.6</ele>
        <time>2014-10-12T12:31:31Z</time>
      </trkpt>
      <trkpt lat="47.99411" lon="0.25411">
        <ele>57.7</ele>
        <time>2014-10-12T12:31:34Z</time>
      </trkpt>
      <trkpt lat="47.9942" lon="0.25411">
        <ele>57.9</ele>
        <time>2014-10-12T12:31:38Z</time>
      </trkpt>
      <trkpt lat="47.99429" lon="0.25409">
        <ele>58.4</ele>
        <time>2014-10-12T12:31:44Z</time>
      </trkpt>
      <trkpt lat="47.99435" lon="0.254">
        <ele>58.2</ele>
        <time>2014-10-12T12:31:50Z</time>
      </trkpt>
      <trkpt lat="47.9944" lon="0.25395">
        <ele>57.8</ele>
        <time>2014-10-12T12:31:57Z</time>
      </trkpt>
      <trkpt lat="47.99447" lon="0.25391">
        <ele>57</ele>
        <time>2014-10-12T12:32:04Z</time>
      </trkpt>
      <trkpt lat="47.99454" lon="0.25387">
        <ele>56.3</ele>
        <time>2014-10-12T12:32:09Z</time>
      </trkpt>
      <trkpt lat="47.99462" lon="0.25383">
        <ele>55.5</ele>
        <time>2014-10-12T12:32:15Z</time>
      </trkpt>
      <trkpt lat="47.99468" lon="0.25377">
        <ele>54.7</ele>
        <time>2014-10-12T12:32:22Z</time>
      </trkpt>
      <trkpt lat="47.99475" lon="0.25372">
        <ele>54.2</ele>
        <time>2014-10-12T12:32:29Z</time>
      </trkpt>
      <trkpt lat="47.99483" lon="0.25369">
        <ele>54.7</ele>
        <time>2014-10-12T12:32:35Z</time>
      </trkpt>
      <trkpt lat="47.99492" lon="0.25367">
        <ele>54.9</ele>
        <time>2014-10-12T12:32:39Z</time>
      </trkpt>
      <trkpt lat="47.99499" lon="0.25365">
        <ele>55.3</ele>
        <time>2014-10-12T12:32:47Z</time>
      </trkpt>
      <trkpt lat="47.99505" lon="0.25361">
        <ele>55.3</ele>
        <time>2014-10-12T12:32:54Z</time>
      </trkpt>
      <trkpt lat="47.99513" lon="0.2536">
        <ele>56.1</ele>
        <time>2014-10-12T12:32:59Z</time>
      </trkpt>
      <trkpt lat="47.9952" lon="0.25356">
        <ele>57.2</ele>
        <time>2014-10-12T12:33:05Z</time>
      </trkpt>
      <trkpt lat="47.99527" lon="0.25352">
        <ele>57.5</ele>
        <time>2014-10-12T12:33:12Z</time>
      </trkpt>
      <trkpt lat="47.99535" lon="0.25354">
        <ele>56.8</ele>
        <time>2014-10-12T12:33:19Z</time>
      </trkpt>
      <trkpt lat="47.99542" lon="0.25354">
        <ele>56.9</ele>
        <time>2014-10-12T12:33:24Z</time>
      </trkpt>
      <trkpt lat="47.9955" lon="0.25358">
        <ele>57</ele>
        <time>2014-10-12T12:33:29Z</time>
      </trkpt>
      <trkpt lat="47.99555" lon="0.25352">
        <ele>54.3</ele>
        <time>2014-10-12T12:33:36Z</time>
      </trkpt>
      <trkpt lat="47.99563" lon="0.25352">
        <ele>52.5</ele>
        <time>2014-10-12T12:33:43Z</time>
      </trkpt>
      <trkpt lat="47.99568" lon="0.25356">
        <ele>52.2</ele>
        <time>2014-10-12T12:33:50Z</time>
      </trkpt>
      <trkpt lat="47.99573" lon="0.25362">
        <ele>50.5</ele>
        <time>2014-10-12T12:33:55Z</time>
      </trkpt>
      <trkpt lat="47.99578" lon="0.25365">
        <ele>49.3</ele>
        <time>2014-10-12T12:34:02Z</time>
      </trkpt>
      <trkpt lat="47.99577" lon="0.25368">
        <ele>48.4</ele>
        <time>2014-10-12T12:34:09Z</time>
      </trkpt>
      <trkpt lat="47.99577" lon="0.25369">
        <ele>48.2</ele>
        <time>2014-10-12T12:34:16Z</time>
      </trkpt>
      <trkpt lat="47.99577" lon="0.25369">
        <ele>48.2</ele>
        <time>2014-10-12T12:34:17Z</time>
      </trkpt>
      <trkpt lat="47.99583" lon="0.25374">
        <ele>47.9</ele>
        <time>2014-10-12T12:34:52Z</time>
      </trkpt>
      <trkpt lat="47.99588" lon="0.25381">
        <ele>47.8</ele>
        <time>2014-10-12T12:34:59Z</time>
      </trkpt>
      <trkpt lat="47.99593" lon="0.25384">
        <ele>47.4</ele>
        <time>2014-10-12T12:35:06Z</time>
      </trkpt>
      <trkpt lat="47.99597" lon="0.25387">
        <ele>47.6</ele>
        <time>2014-10-12T12:35:13Z</time>
      </trkpt>
      <trkpt lat="47.99603" lon="0.25391">
        <ele>47.9</ele>
        <time>2014-10-12T12:35:20Z</time>
      </trkpt>
      <trkpt lat="47.99607" lon="0.25394">
        <ele>47.9</ele>
        <time>2014-10-12T12:35:27Z</time>
      </trkpt>
      <trkpt lat="47.9961" lon="0.25397">
        <ele>47.6</ele>
        <time>2014-10-12T12:35:34Z</time>
      </trkpt>
      <trkpt lat="47.99615" lon="0.25397">
        <ele>47.3</ele>
        <time>2014-10-12T12:35:41Z</time>
      </trkpt>
      <trkpt lat="47.99616" lon="0.25398">
        <ele>47.4</ele>
        <time>2014-10-12T12:35:48Z</time>
      </trkpt>
      <trkpt lat="47.99616" lon="0.25398">
        <ele>47.4</ele>
        <time>2014-10-12T12:35:53Z</time>
      </trkpt>
      <trkpt lat="47.9962" lon="0.25404">
        <ele>47.1</ele>
        <time>2014-10-12T12:36:15Z</time>
      </trkpt>
      <trkpt lat="47.9962" lon="0.25404">
        <ele>46.9</ele>
        <time>2014-10-12T12:36:22Z</time>
      </trkpt>
      <trkpt lat="47.99626" lon="0.25412">
        <ele>47.4</ele>
        <time>2014-10-12T12:36:47Z</time>
      </trkpt>
      <trkpt lat="47.99628" lon="0.2542">
        <ele>47.4</ele>
        <time>2014-10-12T12:36:54Z</time>
      </trkpt>
      <trkpt lat="47.9963" lon="0.25426">
        <ele>47.6</ele>
        <time>2014-10-12T12:37:01Z</time>
      </trkpt>
      <trkpt lat="47.99634" lon="0.25436">
        <ele>47.7</ele>
        <time>2014-10-12T12:37:08Z</time>
      </trkpt>
      <trkpt lat="47.99636" lon="0.25443">
        <ele>47.4</ele>
        <time>2014-10-12T12:37:15Z</time>
      </trkpt>
      <trkpt lat="47.99636" lon="0.25449">
        <ele>47.1</ele>
        <time>2014-10-12T12:37:22Z</time>
      </trkpt>
      <trkpt lat="47.99637" lon="0.25459">
        <ele>46.9</ele>
        <time>2014-10-12T12:37:29Z</time>
      </trkpt>
      <trkpt lat="47.99636" lon="0.25463">
        <ele>46.6</ele>
        <time>2014-10-12T12:37:36Z</time>
      </trkpt>
      <trkpt lat="47.99636" lon="0.25463">
        <ele>46.6</ele>
        <time>2014-10-12T12:37:39Z</time>
      </trkpt>
      <trkpt lat="47.99637" lon="0.25471">
        <ele>46.4</ele>
        <time>2014-10-12T12:37:50Z</time>
      </trkpt>
      <trkpt lat="47.99637" lon="0.25471">
        <ele>46.4</ele>
        <time>2014-10-12T12:37:56Z</time>
      </trkpt>
      <trkpt lat="47.99641" lon="0.25484">
        <ele>45.8</ele>
        <time>2014-10-12T12:38:43Z</time>
      </trkpt>
      <trkpt lat="47.99641" lon="0.25485">
        <ele>45.8</ele>
        <time>2014-10-12T12:38:50Z</time>
      </trkpt>
      <trkpt lat="47.99647" lon="0.25478">
        <ele>45.7</ele>
        <time>2014-10-12T12:40:38Z</time>
      </trkpt>
      <trkpt lat="47.99651" lon="0.25471">
        <ele>45.7</ele>
        <time>2014-10-12T12:40:45Z</time>
      </trkpt>
      <trkpt lat="47.99651" lon="0.25471">
        <ele>45.7</ele>
        <time>2014-10-12T12:40:51Z</time>
      </trkpt>
      <trkpt lat="47.99655" lon="0.25465">
        <ele>45.1</ele>
        <time>2014-10-12T12:41:00Z</time>
      </trkpt>
      <trkpt lat="47.99662" lon="0.25465">
        <ele>45.3</ele>
        <time>2014-10-12T12:41:06Z</time>
      </trkpt>
      <trkpt lat="47.99667" lon="0.25467">
        <ele>45.4</ele>
        <time>2014-10-12T12:41:13Z</time>
      </trkpt>
      <trkpt lat="47.99668" lon="0.25467">
        <ele>45.3</ele>
        <time>2014-10-12T12:41:19Z</time>
      </trkpt>
      <trkpt lat="47.99675" lon="0.25464">
        <ele>45.4</ele>
        <time>2014-10-12T12:41:28Z</time>
      </trkpt>
      <trkpt lat="47.99682" lon="0.25463">
        <ele>45.4</ele>
        <time>2014-10-12T12:41:33Z</time>
      </trkpt>
      <trkpt lat="47.99685" lon="0.25467">
        <ele>45.6</ele>
        <time>2014-10-12T12:41:40Z</time>
      </trkpt>
      <trkpt lat="47.99686" lon="0.25476">
        <ele>45.6</ele>
        <time>2014-10-12T12:41:47Z</time>
      </trkpt>
      <trkpt lat="47.99686" lon="0.25479">
        <ele>45.5</ele>
        <time>2014-10-12T12:41:54Z</time>
      </trkpt>
      <trkpt lat="47.99688" lon="0.25476">
        <ele>45.3</ele>
        <time>2014-10-12T12:42:01Z</time>
      </trkpt>
      <trkpt lat="47.99695" lon="0.25471">
        <ele>45.4</ele>
        <time>2014-10-12T12:42:08Z</time>
      </trkpt>
      <trkpt lat="47.99701" lon="0.25467">
        <ele>45.6</ele>
        <time>2014-10-12T12:42:15Z</time>
      </trkpt>
      <trkpt lat="47.99709" lon="0.25471">
        <ele>46.5</ele>
        <time>2014-10-12T12:42:21Z</time>
      </trkpt>
      <trkpt lat="47.99709" lon="0.25467">
        <ele>46.5</ele>
        <time>2014-10-12T12:42:28Z</time>
      </trkpt>
      <trkpt lat="47.99709" lon="0.25467">
        <ele>46.5</ele>
        <time>2014-10-12T12:42:33Z</time>
      </trkpt>
      <trkpt lat="47.9971" lon="0.25473">
        <ele>46.4</ele>
        <time>2014-10-12T12:42:58Z</time>
      </trkpt>
      <trkpt lat="47.99715" lon="0.25482">
        <ele>46.6</ele>
        <time>2014-10-12T12:43:05Z</time>
      </trkpt>
      <trkpt lat="47.99715" lon="0.25483">
        <ele>46.6</ele>
        <time>2014-10-12T12:43:12Z</time>
      </trkpt>
      <trkpt lat="47.99715" lon="0.25483">
        <ele>46.6</ele>
        <time>2014-10-12T12:43:18Z</time>
      </trkpt>
      <trkpt lat="47.99715" lon="0.25485">
        <ele>46.3</ele>
        <time>2014-10-12T12:43:28Z</time>
      </trkpt>
      <trkpt lat="47.99715" lon="0.25485">
        <ele>46.3</ele>
        <time>2014-10-12T12:43:31Z</time>
      </trkpt>
      <trkpt lat="47.99723" lon="0.25482">
        <ele>46.2</ele>
        <time>2014-10-12T12:44:30Z</time>
      </trkpt>
      <trkpt lat="47.99724" lon="0.25479">
        <ele>46.2</ele>
        <time>2014-10-12T12:44:37Z</time>
      </trkpt>
      <trkpt lat="47.99731" lon="0.25479">
        <ele>46.1</ele>
        <time>2014-10-12T12:44:44Z</time>
      </trkpt>
      <trkpt lat="47.99739" lon="0.25476">
        <ele>46</ele>
        <time>2014-10-12T12:44:50Z</time>
      </trkpt>
      <trkpt lat="47.99745" lon="0.2547">
        <ele>46.3</ele>
        <time>2014-10-12T12:44:57Z</time>
      </trkpt>
      <trkpt lat="47.99745" lon="0.25467">
        <ele>46.5</ele>
        <time>2014-10-12T12:45:04Z</time>
      </trkpt>
      <trkpt lat="47.9974" lon="0.25477">
        <ele>45.9</ele>
        <time>2014-10-12T12:45:11Z</time>
      </trkpt>
      <trkpt lat="47.99734" lon="0.25487">
        <ele>45.6</ele>
        <time>2014-10-12T12:45:18Z</time>
      </trkpt>
      <trkpt lat="47.99733" lon="0.2549">
        <ele>45.7</ele>
        <time>2014-10-12T12:45:25Z</time>
      </trkpt>
      <trkpt lat="47.99733" lon="0.2549">
        <ele>45.7</ele>
        <time>2014-10-12T12:45:28Z</time>
      </trkpt>
      <trkpt lat="47.99725" lon="0.25488">
        <ele>45.8</ele>
        <time>2014-10-12T12:45:38Z</time>
      </trkpt>
      <trkpt lat="47.99721" lon="0.25486">
        <ele>45.7</ele>
        <time>2014-10-12T12:45:45Z</time>
      </trkpt>
      <trkpt lat="47.99721" lon="0.25486">
        <ele>45.6</ele>
        <time>2014-10-12T12:45:52Z</time>
      </trkpt>
      <trkpt lat="47.99721" lon="0.25486">
        <ele>45.6</ele>
        <time>2014-10-12T12:45:55Z</time>
      </trkpt>
      <trkpt lat="47.99718" lon="0.2549">
        <ele>45.5</ele>
        <time>2014-10-12T12:46:02Z</time>
      </trkpt>
      <trkpt lat="47.99722" lon="0.25493">
        <ele>45.6</ele>
        <time>2014-10-12T12:46:09Z</time>
      </trkpt>
      <trkpt lat="47.99722" lon="0.25496">
        <ele>45.6</ele>
        <time>2014-10-12T12:46:16Z</time>
      </trkpt>
      <trkpt lat="47.99719" lon="0.255">
        <ele>45.9</ele>
        <time>2014-10-12T12:46:23Z</time>
      </trkpt>
      <trkpt lat="47.99718" lon="0.25501">
        <ele>45.9</ele>
        <time>2014-10-12T12:46:30Z</time>
      </trkpt>
      <trkpt lat="47.99719" lon="0.25501">
        <ele>46</ele>
        <time>2014-10-12T12:46:37Z</time>
      </trkpt>
      <trkpt lat="47.99719" lon="0.25498">
        <ele>46.1</ele>
        <time>2014-10-12T12:46:44Z</time>
      </trkpt>
      <trkpt lat="47.99717" lon="0.25497">
        <ele>45.7</ele>
        <time>2014-10-12T12:46:51Z</time>
      </trkpt>
      <trkpt lat="47.99717" lon="0.25497">
        <ele>45.7</ele>
        <time>2014-10-12T12:46:58Z</time>
      </trkpt>
      <trkpt lat="47.99722" lon="0.25498">
        <ele>46</ele>
        <time>2014-10-12T12:47:18Z</time>
      </trkpt>
      <trkpt lat="47.99722" lon="0.25498">
        <ele>46</ele>
        <time>2014-10-12T12:47:23Z</time>
      </trkpt>
      <trkpt lat="47.99723" lon="0.255">
        <ele>46.3</ele>
        <time>2014-10-12T12:47:30Z</time>
      </trkpt>
      <trkpt lat="47.99726" lon="0.25497">
        <ele>46.6</ele>
        <time>2014-10-12T12:47:37Z</time>
      </trkpt>
      <trkpt lat="47.99731" lon="0.25494">
        <ele>46.3</ele>
        <time>2014-10-12T12:47:44Z</time>
      </trkpt>
      <trkpt lat="47.99738" lon="0.25494">
        <ele>47.1</ele>
        <time>2014-10-12T12:47:50Z</time>
      </trkpt>
      <trkpt lat="47.99743" lon="0.25486">
        <ele>47.1</ele>
        <time>2014-10-12T12:47:57Z</time>
      </trkpt>
      <trkpt lat="47.99743" lon="0.25482">
        <ele>46.8</ele>
        <time>2014-10-12T12:48:04Z</time>
      </trkpt>
      <trkpt lat="47.99743" lon="0.25482">
        <ele>46.8</ele>
        <time>2014-10-12T12:48:08Z</time>
      </trkpt>
      <trkpt lat="47.99748" lon="0.25492">
        <ele>46.5</ele>
        <time>2014-10-12T12:48:46Z</time>
      </trkpt>
      <trkpt lat="47.99754" lon="0.25489">
        <ele>46</ele>
        <time>2014-10-12T12:48:54Z</time>
      </trkpt>
      <trkpt lat="47.9976" lon="0.25487">
        <ele>45.9</ele>
        <time>2014-10-12T12:49:00Z</time>
      </trkpt>
      <trkpt lat="47.99765" lon="0.25482">
        <ele>45.8</ele>
        <time>2014-10-12T12:49:07Z</time>
      </trkpt>
      <trkpt lat="47.9977" lon="0.25481">
        <ele>45.8</ele>
        <time>2014-10-12T12:49:14Z</time>
      </trkpt>
      <trkpt lat="47.99774" lon="0.25476">
        <ele>45.6</ele>
        <time>2014-10-12T12:49:21Z</time>
      </trkpt>
      <trkpt lat="47.99775" lon="0.25477">
        <ele>45.7</ele>
        <time>2014-10-12T12:49:26Z</time>
      </trkpt>
      <trkpt lat="47.99783" lon="0.25472">
        <ele>45.4</ele>
        <time>2014-10-12T12:50:01Z</time>
      </trkpt>
      <trkpt lat="47.99785" lon="0.25472">
        <ele>45.4</ele>
        <time>2014-10-12T12:50:08Z</time>
      </trkpt>
      <trkpt lat="47.99785" lon="0.25472">
        <ele>45.4</ele>
        <time>2014-10-12T12:50:09Z</time>
      </trkpt>
      <trkpt lat="47.99792" lon="0.2547">
        <ele>45.2</ele>
        <time>2014-10-12T12:50:15Z</time>
      </trkpt>
      <trkpt lat="47.99797" lon="0.25467">
        <ele>45.3</ele>
        <time>2014-10-12T12:50:22Z</time>
      </trkpt>
      <trkpt lat="47.99803" lon="0.25465">
        <ele>45.6</ele>
        <time>2014-10-12T12:50:29Z</time>
      </trkpt>
      <trkpt lat="47.99812" lon="0.25465">
        <ele>45.6</ele>
        <time>2014-10-12T12:50:34Z</time>
      </trkpt>
      <trkpt lat="47.99819" lon="0.25464">
        <ele>45.8</ele>
        <time>2014-10-12T12:50:40Z</time>
      </trkpt>
      <trkpt lat="47.99826" lon="0.25463">
        <ele>45.5</ele>
        <time>2014-10-12T12:50:47Z</time>
      </trkpt>
      <trkpt lat="47.99831" lon="0.2546">
        <ele>45.6</ele>
        <time>2014-10-12T12:50:54Z</time>
      </trkpt>
      <trkpt lat="47.99838" lon="0.25457">
        <ele>45.7</ele>
        <time>2014-10-12T12:51:01Z</time>
      </trkpt>
      <trkpt lat="47.99844" lon="0.25454">
        <ele>45.7</ele>
        <time>2014-10-12T12:51:08Z</time>
      </trkpt>
      <trkpt lat="47.99852" lon="0.25453">
        <ele>45.6</ele>
        <time>2014-10-12T12:51:13Z</time>
      </trkpt>
      <trkpt lat="47.99861" lon="0.25446">
        <ele>45.4</ele>
        <time>2014-10-12T12:51:18Z</time>
      </trkpt>
      <trkpt lat="47.99868" lon="0.25442">
        <ele>45.5</ele>
        <time>2014-10-12T12:51:25Z</time>
      </trkpt>
      <trkpt lat="47.99867" lon="0.25439">
        <ele>45.8</ele>
        <time>2014-10-12T12:51:32Z</time>
      </trkpt>
      <trkpt lat="47.99868" lon="0.25439">
        <ele>45.6</ele>
        <time>2014-10-12T12:51:36Z</time>
      </trkpt>
      <trkpt lat="47.99874" lon="0.25431">
        <ele>45.3</ele>
        <time>2014-10-12T12:52:14Z</time>
      </trkpt>
      <trkpt lat="47.99881" lon="0.25425">
        <ele>45.3</ele>
        <time>2014-10-12T12:52:20Z</time>
      </trkpt>
      <trkpt lat="47.99889" lon="0.25421">
        <ele>45.3</ele>
        <time>2014-10-12T12:52:25Z</time>
      </trkpt>
      <trkpt lat="47.99896" lon="0.25415">
        <ele>45.3</ele>
        <time>2014-10-12T12:52:31Z</time>
      </trkpt>
      <trkpt lat="47.99903" lon="0.25408">
        <ele>45</ele>
        <time>2014-10-12T12:52:37Z</time>
      </trkpt>
      <trkpt lat="47.99908" lon="0.254">
        <ele>45.1</ele>
        <time>2014-10-12T12:52:43Z</time>
      </trkpt>
      <trkpt lat="47.99913" lon="0.25391">
        <ele>45.4</ele>
        <time>2014-10-12T12:52:50Z</time>
      </trkpt>
      <trkpt lat="47.99918" lon="0.25382">
        <ele>45.4</ele>
        <time>2014-10-12T12:52:54Z</time>
      </trkpt>
      <trkpt lat="47.99924" lon="0.25376">
        <ele>45.3</ele>
        <time>2014-10-12T12:52:58Z</time>
      </trkpt>
      <trkpt lat="47.99931" lon="0.2537">
        <ele>45.2</ele>
        <time>2014-10-12T12:53:03Z</time>
      </trkpt>
      <trkpt lat="47.99937" lon="0.25365">
        <ele>45.2</ele>
        <time>2014-10-12T12:53:09Z</time>
      </trkpt>
      <trkpt lat="47.99943" lon="0.25358">
        <ele>45.1</ele>
        <time>2014-10-12T12:53:15Z</time>
      </trkpt>
      <trkpt lat="47.99949" lon="0.25351">
        <ele>45.3</ele>
        <time>2014-10-12T12:53:22Z</time>
      </trkpt>
      <trkpt lat="47.99954" lon="0.25343">
        <ele>45.4</ele>
        <time>2014-10-12T12:53:27Z</time>
      </trkpt>
      <trkpt lat="47.9996" lon="0.25335">
        <ele>45.2</ele>
        <time>2014-10-12T12:53:34Z</time>
      </trkpt>
      <trkpt lat="47.99966" lon="0.25329">
        <ele>45</ele>
        <time>2014-10-12T12:53:38Z</time>
      </trkpt>
      <trkpt lat="47.99973" lon="0.25324">
        <ele>44.8</ele>
        <time>2014-10-12T12:53:44Z</time>
      </trkpt>
      <trkpt lat="47.9998" lon="0.25316">
        <ele>44.6</ele>
        <time>2014-10-12T12:53:50Z</time>
      </trkpt>
      <trkpt lat="47.99983" lon="0.25307">
        <ele>44.2</ele>
        <time>2014-10-12T12:53:57Z</time>
      </trkpt>
      <trkpt lat="47.99986" lon="0.25295">
        <ele>44.1</ele>
        <time>2014-10-12T12:54:03Z</time>
      </trkpt>
      <trkpt lat="47.99988" lon="0.25284">
        <ele>43.9</ele>
        <time>2014-10-12T12:54:09Z</time>
      </trkpt>
      <trkpt lat="47.99989" lon="0.25273">
        <ele>43.6</ele>
        <time>2014-10-12T12:54:14Z</time>
      </trkpt>
      <trkpt lat="47.99991" lon="0.25263">
        <ele>43.4</ele>
        <time>2014-10-12T12:54:21Z</time>
      </trkpt>
      <trkpt lat="47.9999" lon="0.25252">
        <ele>43.4</ele>
        <time>2014-10-12T12:54:28Z</time>
      </trkpt>
      <trkpt lat="47.99989" lon="0.25241">
        <ele>43.6</ele>
        <time>2014-10-12T12:54:34Z</time>
      </trkpt>
      <trkpt lat="47.99987" lon="0.2523">
        <ele>43.5</ele>
        <time>2014-10-12T12:54:40Z</time>
      </trkpt>
      <trkpt lat="47.99986" lon="0.25219">
        <ele>43.6</ele>
        <time>2014-10-12T12:54:44Z</time>
      </trkpt>
      <trkpt lat="47.99983" lon="0.25207">
        <ele>44.1</ele>
        <time>2014-10-12T12:54:50Z</time>
      </trkpt>
      <trkpt lat="47.99979" lon="0.25198">
        <ele>44</ele>
        <time>2014-10-12T12:54:56Z</time>
      </trkpt>
      <trkpt lat="47.99975" lon="0.25188">
        <ele>44.1</ele>
        <time>2014-10-12T12:55:01Z</time>
      </trkpt>
      <trkpt lat="47.99973" lon="0.25177">
        <ele>43.9</ele>
        <time>2014-10-12T12:55:08Z</time>
      </trkpt>
      <trkpt lat="47.99973" lon="0.25167">
        <ele>43.8</ele>
        <time>2014-10-12T12:55:15Z</time>
      </trkpt>
      <trkpt lat="47.9997" lon="0.25159">
        <ele>44</ele>
        <time>2014-10-12T12:55:22Z</time>
      </trkpt>
      <trkpt lat="47.99964" lon="0.2515">
        <ele>44.3</ele>
        <time>2014-10-12T12:55:28Z</time>
      </trkpt>
      <trkpt lat="47.99959" lon="0.25141">
        <ele>44.4</ele>
        <time>2014-10-12T12:55:34Z</time>
      </trkpt>
      <trkpt lat="47.99953" lon="0.25133">
        <ele>44</ele>
        <time>2014-10-12T12:55:41Z</time>
      </trkpt>
      <trkpt lat="47.99948" lon="0.25126">
        <ele>43.9</ele>
        <time>2014-10-12T12:55:46Z</time>
      </trkpt>
      <trkpt lat="47.99941" lon="0.25118">
        <ele>43.7</ele>
        <time>2014-10-12T12:55:52Z</time>
      </trkpt>
      <trkpt lat="47.99936" lon="0.25112">
        <ele>43.7</ele>
        <time>2014-10-12T12:55:58Z</time>
      </trkpt>
      <trkpt lat="47.99929" lon="0.25107">
        <ele>43.9</ele>
        <time>2014-10-12T12:56:03Z</time>
      </trkpt>
      <trkpt lat="47.99922" lon="0.25101">
        <ele>44.3</ele>
        <time>2014-10-12T12:56:09Z</time>
      </trkpt>
      <trkpt lat="47.99917" lon="0.25093">
        <ele>44.2</ele>
        <time>2014-10-12T12:56:16Z</time>
      </trkpt>
      <trkpt lat="47.99911" lon="0.25084">
        <ele>44.1</ele>
        <time>2014-10-12T12:56:23Z</time>
      </trkpt>
      <trkpt lat="47.99904" lon="0.25078">
        <ele>44</ele>
        <time>2014-10-12T12:56:29Z</time>
      </trkpt>
      <trkpt lat="47.99898" lon="0.25072">
        <ele>43.7</ele>
        <time>2014-10-12T12:56:36Z</time>
      </trkpt>
      <trkpt lat="47.99891" lon="0.25067">
        <ele>43.9</ele>
        <time>2014-10-12T12:56:43Z</time>
      </trkpt>
      <trkpt lat="47.99884" lon="0.2506">
        <ele>44</ele>
        <time>2014-10-12T12:56:49Z</time>
      </trkpt>
      <trkpt lat="47.99877" lon="0.25055">
        <ele>44</ele>
        <time>2014-10-12T12:56:55Z</time>
      </trkpt>
      <trkpt lat="47.99872" lon="0.25052">
        <ele>43.9</ele>
        <time>2014-10-12T12:57:02Z</time>
      </trkpt>
      <trkpt lat="47.99865" lon="0.25047">
        <ele>43.8</ele>
        <time>2014-10-12T12:57:08Z</time>
      </trkpt>
      <trkpt lat="47.99862" lon="0.2504">
        <ele>43.7</ele>
        <time>2014-10-12T12:57:15Z</time>
      </trkpt>
      <trkpt lat="47.99856" lon="0.25034">
        <ele>43.4</ele>
        <time>2014-10-12T12:57:22Z</time>
      </trkpt>
      <trkpt lat="47.9985" lon="0.2503">
        <ele>43.2</ele>
        <time>2014-10-12T12:57:26Z</time>
      </trkpt>
      <trkpt lat="47.99843" lon="0.25025">
        <ele>43.2</ele>
        <time>2014-10-12T12:57:33Z</time>
      </trkpt>
      <trkpt lat="47.99837" lon="0.25019">
        <ele>42.9</ele>
        <time>2014-10-12T12:57:38Z</time>
      </trkpt>
      <trkpt lat="47.99835" lon="0.25011">
        <ele>42.6</ele>
        <time>2014-10-12T12:57:45Z</time>
      </trkpt>
      <trkpt lat="47.99828" lon="0.25006">
        <ele>42.8</ele>
        <time>2014-10-12T12:57:52Z</time>
      </trkpt>
      <trkpt lat="47.99822" lon="0.25">
        <ele>43.1</ele>
        <time>2014-10-12T12:57:59Z</time>
      </trkpt>
      <trkpt lat="47.99816" lon="0.24995">
        <ele>42.9</ele>
        <time>2014-10-12T12:58:06Z</time>
      </trkpt>
      <trkpt lat="47.9981" lon="0.24987">
        <ele>42.9</ele>
        <time>2014-10-12T12:58:13Z</time>
      </trkpt>
      <trkpt lat="47.99804" lon="0.24982">
        <ele>43.3</ele>
        <time>2014-10-12T12:58:20Z</time>
      </trkpt>
      <trkpt lat="47.99798" lon="0.24975">
        <ele>43.5</ele>
        <time>2014-10-12T12:58:27Z</time>
      </trkpt>
      <trkpt lat="47.9979" lon="0.24969">
        <ele>43.5</ele>
        <time>2014-10-12T12:58:32Z</time>
      </trkpt>
      <trkpt lat="47.99785" lon="0.24963">
        <ele>43.4</ele>
        <time>2014-10-12T12:58:39Z</time>
      </trkpt>
      <trkpt lat="47.99778" lon="0.24958">
        <ele>43.7</ele>
        <time>2014-10-12T12:58:44Z</time>
      </trkpt>
      <trkpt lat="47.99776" lon="0.2495">
        <ele>44.2</ele>
        <time>2014-10-12T12:58:51Z</time>
      </trkpt>
      <trkpt lat="47.99769" lon="0.24944">
        <ele>44.7</ele>
        <time>2014-10-12T12:58:56Z</time>
      </trkpt>
      <trkpt lat="47.99763" lon="0.24936">
        <ele>45.2</ele>
        <time>2014-10-12T12:59:02Z</time>
      </trkpt>
      <trkpt lat="47.99758" lon="0.24928">
        <ele>46</ele>
        <time>2014-10-12T12:59:08Z</time>
      </trkpt>
      <trkpt lat="47.99751" lon="0.24922">
        <ele>46.4</ele>
        <time>2014-10-12T12:59:15Z</time>
      </trkpt>
      <trkpt lat="47.99745" lon="0.24917">
        <ele>46.3</ele>
        <time>2014-10-12T12:59:22Z</time>
      </trkpt>
      <trkpt lat="47.99739" lon="0.2491">
        <ele>46.4</ele>
        <time>2014-10-12T12:59:28Z</time>
      </trkpt>
      <trkpt lat="47.99732" lon="0.24902">
        <ele>46.7</ele>
        <time>2014-10-12T12:59:34Z</time>
      </trkpt>
      <trkpt lat="47.99726" lon="0.24895">
        <ele>47</ele>
        <time>2014-10-12T12:59:40Z</time>
      </trkpt>
      <trkpt lat="47.99719" lon="0.24888">
        <ele>47.6</ele>
        <time>2014-10-12T12:59:46Z</time>
      </trkpt>
      <trkpt lat="47.99714" lon="0.24881">
        <ele>48.2</ele>
        <time>2014-10-12T12:59:53Z</time>
      </trkpt>
      <trkpt lat="47.99709" lon="0.24875">
        <ele>48.4</ele>
        <time>2014-10-12T12:59:57Z</time>
      </trkpt>
      <trkpt lat="47.99703" lon="0.24868">
        <ele>48.9</ele>
        <time>2014-10-12T13:00:02Z</time>
      </trkpt>
      <trkpt lat="47.99696" lon="0.24862">
        <ele>49</ele>
        <time>2014-10-12T13:00:07Z</time>
      </trkpt>
      <trkpt lat="47.99691" lon="0.24857">
        <ele>49.1</ele>
        <time>2014-10-12T13:00:14Z</time>
      </trkpt>
      <trkpt lat="47.99685" lon="0.24849">
        <ele>49.2</ele>
        <time>2014-10-12T13:00:21Z</time>
      </trkpt>
      <trkpt lat="47.99682" lon="0.24839">
        <ele>49.3</ele>
        <time>2014-10-12T13:00:28Z</time>
      </trkpt>
      <trkpt lat="47.99677" lon="0.24829">
        <ele>49.9</ele>
        <time>2014-10-12T13:00:34Z</time>
      </trkpt>
      <trkpt lat="47.99672" lon="0.2482">
        <ele>50.6</ele>
        <time>2014-10-12T13:00:41Z</time>
      </trkpt>
      <trkpt lat="47.99667" lon="0.24812">
        <ele>50.9</ele>
        <time>2014-10-12T13:00:47Z</time>
      </trkpt>
      <trkpt lat="47.99662" lon="0.24803">
        <ele>51.3</ele>
        <time>2014-10-12T13:00:52Z</time>
      </trkpt>
      <trkpt lat="47.99658" lon="0.24793">
        <ele>51.9</ele>
        <time>2014-10-12T13:00:59Z</time>
      </trkpt>
      <trkpt lat="47.99653" lon="0.24783">
        <ele>52.5</ele>
        <time>2014-10-12T13:01:06Z</time>
      </trkpt>
      <trkpt lat="47.99649" lon="0.24771">
        <ele>52.9</ele>
        <time>2014-10-12T13:01:13Z</time>
      </trkpt>
      <trkpt lat="47.99645" lon="0.24762">
        <ele>52.8</ele>
        <time>2014-10-12T13:01:18Z</time>
      </trkpt>
      <trkpt lat="47.99641" lon="0.24752">
        <ele>53.1</ele>
        <time>2014-10-12T13:01:23Z</time>
      </trkpt>
      <trkpt lat="47.99636" lon="0.24742">
        <ele>53.6</ele>
        <time>2014-10-12T13:01:28Z</time>
      </trkpt>
      <trkpt lat="47.99634" lon="0.24732">
        <ele>54.1</ele>
        <time>2014-10-12T13:01:34Z</time>
      </trkpt>
      <trkpt lat="47.99631" lon="0.2472">
        <ele>54.4</ele>
        <time>2014-10-12T13:01:41Z</time>
      </trkpt>
      <trkpt lat="47.9963" lon="0.24708">
        <ele>54.7</ele>
        <time>2014-10-12T13:01:48Z</time>
      </trkpt>
      <trkpt lat="47.99628" lon="0.24696">
        <ele>55.3</ele>
        <time>2014-10-12T13:01:54Z</time>
      </trkpt>
      <trkpt lat="47.99626" lon="0.24685">
        <ele>56</ele>
        <time>2014-10-12T13:02:00Z</time>
      </trkpt>
      <trkpt lat="47.99622" lon="0.24674">
        <ele>56.4</ele>
        <time>2014-10-12T13:02:06Z</time>
      </trkpt>
      <trkpt lat="47.9962" lon="0.24664">
        <ele>56.8</ele>
        <time>2014-10-12T13:02:11Z</time>
      </trkpt>
      <trkpt lat="47.99616" lon="0.24654">
        <ele>57.2</ele>
        <time>2014-10-12T13:02:16Z</time>
      </trkpt>
      <trkpt lat="47.99615" lon="0.24645">
        <ele>57.4</ele>
        <time>2014-10-12T13:02:23Z</time>
      </trkpt>
      <trkpt lat="47.99614" lon="0.24633">
        <ele>57.5</ele>
        <time>2014-10-12T13:02:29Z</time>
      </trkpt>
      <trkpt lat="47.99614" lon="0.24621">
        <ele>57.6</ele>
        <time>2014-10-12T13:02:36Z</time>
      </trkpt>
      <trkpt lat="47.99613" lon="0.2461">
        <ele>57.4</ele>
        <time>2014-10-12T13:02:42Z</time>
      </trkpt>
      <trkpt lat="47.99611" lon="0.24598">
        <ele>57.8</ele>
        <time>2014-10-12T13:02:48Z</time>
      </trkpt>
      <trkpt lat="47.99611" lon="0.24586">
        <ele>58.2</ele>
        <time>2014-10-12T13:02:54Z</time>
      </trkpt>
      <trkpt lat="47.99607" lon="0.24575">
        <ele>58.4</ele>
        <time>2014-10-12T13:02:59Z</time>
      </trkpt>
      <trkpt lat="47.99605" lon="0.24563">
        <ele>58.3</ele>
        <time>2014-10-12T13:03:05Z</time>
      </trkpt>
      <trkpt lat="47.99604" lon="0.24552">
        <ele>58.7</ele>
        <time>2014-10-12T13:03:11Z</time>
      </trkpt>
      <trkpt lat="47.99602" lon="0.24542">
        <ele>58.8</ele>
        <time>2014-10-12T13:03:16Z</time>
      </trkpt>
      <trkpt lat="47.99601" lon="0.24532">
        <ele>58.7</ele>
        <time>2014-10-12T13:03:23Z</time>
      </trkpt>
      <trkpt lat="47.99598" lon="0.2452">
        <ele>58.7</ele>
        <time>2014-10-12T13:03:28Z</time>
      </trkpt>
      <trkpt lat="47.99595" lon="0.2451">
        <ele>58.6</ele>
        <time>2014-10-12T13:03:34Z</time>
      </trkpt>
      <trkpt lat="47.99593" lon="0.24498">
        <ele>58.4</ele>
        <time>2014-10-12T13:03:40Z</time>
      </trkpt>
      <trkpt lat="47.99591" lon="0.24488">
        <ele>58.2</ele>
        <time>2014-10-12T13:03:46Z</time>
      </trkpt>
      <trkpt lat="47.99589" lon="0.24476">
        <ele>57.9</ele>
        <time>2014-10-12T13:03:52Z</time>
      </trkpt>
      <trkpt lat="47.99586" lon="0.24465">
        <ele>57.7</ele>
        <time>2014-10-12T13:03:57Z</time>
      </trkpt>
      <trkpt lat="47.99582" lon="0.24454">
        <ele>57.1</ele>
        <time>2014-10-12T13:04:02Z</time>
      </trkpt>
      <trkpt lat="47.99581" lon="0.24442">
        <ele>57.2</ele>
        <time>2014-10-12T13:04:09Z</time>
      </trkpt>
      <trkpt lat="47.99577" lon="0.24432">
        <ele>57.3</ele>
        <time>2014-10-12T13:04:14Z</time>
      </trkpt>
      <trkpt lat="47.99573" lon="0.24417">
        <ele>55.8</ele>
        <time>2014-10-12T13:04:20Z</time>
      </trkpt>
      <trkpt lat="47.99568" lon="0.24407">
        <ele>53</ele>
        <time>2014-10-12T13:04:24Z</time>
      </trkpt>
      <trkpt lat="47.99564" lon="0.24398">
        <ele>51.7</ele>
        <time>2014-10-12T13:04:28Z</time>
      </trkpt>
      <trkpt lat="47.99559" lon="0.24387">
        <ele>50.3</ele>
        <time>2014-10-12T13:04:32Z</time>
      </trkpt>
      <trkpt lat="47.99556" lon="0.24376">
        <ele>49.1</ele>
        <time>2014-10-12T13:04:37Z</time>
      </trkpt>
      <trkpt lat="47.99552" lon="0.24364">
        <ele>47.8</ele>
        <time>2014-10-12T13:04:42Z</time>
      </trkpt>
      <trkpt lat="47.99548" lon="0.24357">
        <ele>46.2</ele>
        <time>2014-10-12T13:04:49Z</time>
      </trkpt>
      <trkpt lat="47.99542" lon="0.24349">
        <ele>45.3</ele>
        <time>2014-10-12T13:04:56Z</time>
      </trkpt>
      <trkpt lat="47.99535" lon="0.24343">
        <ele>44.5</ele>
        <time>2014-10-12T13:05:02Z</time>
      </trkpt>
      <trkpt lat="47.99529" lon="0.24336">
        <ele>43.5</ele>
        <time>2014-10-12T13:05:08Z</time>
      </trkpt>
      <trkpt lat="47.99523" lon="0.24327">
        <ele>43.1</ele>
        <time>2014-10-12T13:05:13Z</time>
      </trkpt>
      <trkpt lat="47.99517" lon="0.24318">
        <ele>42.2</ele>
        <time>2014-10-12T13:05:19Z</time>
      </trkpt>
      <trkpt lat="47.99513" lon="0.24307">
        <ele>41.9</ele>
        <time>2014-10-12T13:05:25Z</time>
      </trkpt>
      <trkpt lat="47.9951" lon="0.24295">
        <ele>40.8</ele>
        <time>2014-10-12T13:05:32Z</time>
      </trkpt>
      <trkpt lat="47.99507" lon="0.24285">
        <ele>40</ele>
        <time>2014-10-12T13:05:39Z</time>
      </trkpt>
      <trkpt lat="47.99501" lon="0.24276">
        <ele>39.8</ele>
        <time>2014-10-12T13:05:45Z</time>
      </trkpt>
      <trkpt lat="47.99496" lon="0.2427">
        <ele>40</ele>
        <time>2014-10-12T13:05:50Z</time>
      </trkpt>
      <trkpt lat="47.9949" lon="0.24261">
        <ele>39.5</ele>
        <time>2014-10-12T13:05:57Z</time>
      </trkpt>
      <trkpt lat="47.99483" lon="0.24255">
        <ele>39.1</ele>
        <time>2014-10-12T13:06:03Z</time>
      </trkpt>
      <trkpt lat="47.99475" lon="0.24248">
        <ele>38.6</ele>
        <time>2014-10-12T13:06:09Z</time>
      </trkpt>
      <trkpt lat="47.99468" lon="0.24242">
        <ele>38.3</ele>
        <time>2014-10-12T13:06:15Z</time>
      </trkpt>
      <trkpt lat="47.99461" lon="0.24239">
        <ele>37.9</ele>
        <time>2014-10-12T13:06:20Z</time>
      </trkpt>
      <trkpt lat="47.99454" lon="0.24236">
        <ele>38.1</ele>
        <time>2014-10-12T13:06:24Z</time>
      </trkpt>
      <trkpt lat="47.99447" lon="0.24231">
        <ele>37.8</ele>
        <time>2014-10-12T13:06:30Z</time>
      </trkpt>
      <trkpt lat="47.99441" lon="0.24224">
        <ele>37.4</ele>
        <time>2014-10-12T13:06:37Z</time>
      </trkpt>
      <trkpt lat="47.99434" lon="0.24215">
        <ele>37.5</ele>
        <time>2014-10-12T13:06:43Z</time>
      </trkpt>
      <trkpt lat="47.99427" lon="0.24207">
        <ele>37.4</ele>
        <time>2014-10-12T13:06:48Z</time>
      </trkpt>
      <trkpt lat="47.99422" lon="0.24197">
        <ele>37.5</ele>
        <time>2014-10-12T13:06:55Z</time>
      </trkpt>
      <trkpt lat="47.99414" lon="0.24192">
        <ele>37.5</ele>
        <time>2014-10-12T13:07:00Z</time>
      </trkpt>
      <trkpt lat="47.99408" lon="0.24185">
        <ele>37.7</ele>
        <time>2014-10-12T13:07:05Z</time>
      </trkpt>
      <trkpt lat="47.99402" lon="0.24178">
        <ele>37.8</ele>
        <time>2014-10-12T13:07:09Z</time>
      </trkpt>
      <trkpt lat="47.99399" lon="0.24168">
        <ele>37.6</ele>
        <time>2014-10-12T13:07:16Z</time>
      </trkpt>
      <trkpt lat="47.99396" lon="0.2416">
        <ele>38</ele>
        <time>2014-10-12T13:07:23Z</time>
      </trkpt>
      <trkpt lat="47.9939" lon="0.24152">
        <ele>38.8</ele>
        <time>2014-10-12T13:07:30Z</time>
      </trkpt>
      <trkpt lat="47.99384" lon="0.24146">
        <ele>39.2</ele>
        <time>2014-10-12T13:07:36Z</time>
      </trkpt>
      <trkpt lat="47.99378" lon="0.2414">
        <ele>39.4</ele>
        <time>2014-10-12T13:07:42Z</time>
      </trkpt>
      <trkpt lat="47.99371" lon="0.24134">
        <ele>39.4</ele>
        <time>2014-10-12T13:07:49Z</time>
      </trkpt>
      <trkpt lat="47.99364" lon="0.2413">
        <ele>39.6</ele>
        <time>2014-10-12T13:07:55Z</time>
      </trkpt>
      <trkpt lat="47.99357" lon="0.24127">
        <ele>39.6</ele>
        <time>2014-10-12T13:08:01Z</time>
      </trkpt>
      <trkpt lat="47.99351" lon="0.24124">
        <ele>40.1</ele>
        <time>2014-10-12T13:08:08Z</time>
      </trkpt>
      <trkpt lat="47.99343" lon="0.24122">
        <ele>40.4</ele>
        <time>2014-10-12T13:08:14Z</time>
      </trkpt>
      <trkpt lat="47.99335" lon="0.2412">
        <ele>40.6</ele>
        <time>2014-10-12T13:08:20Z</time>
      </trkpt>
      <trkpt lat="47.99327" lon="0.24117">
        <ele>41</ele>
        <time>2014-10-12T13:08:27Z</time>
      </trkpt>
      <trkpt lat="47.99319" lon="0.24114">
        <ele>40.9</ele>
        <time>2014-10-12T13:08:33Z</time>
      </trkpt>
      <trkpt lat="47.99311" lon="0.24112">
        <ele>41.2</ele>
        <time>2014-10-12T13:08:39Z</time>
      </trkpt>
      <trkpt lat="47.99303" lon="0.24112">
        <ele>41.5</ele>
        <time>2014-10-12T13:08:44Z</time>
      </trkpt>
      <trkpt lat="47.99298" lon="0.24109">
        <ele>42.1</ele>
        <time>2014-10-12T13:08:51Z</time>
      </trkpt>
      <trkpt lat="47.99292" lon="0.24105">
        <ele>42.7</ele>
        <time>2014-10-12T13:08:58Z</time>
      </trkpt>
      <trkpt lat="47.99286" lon="0.241">
        <ele>43</ele>
        <time>2014-10-12T13:09:05Z</time>
      </trkpt>
      <trkpt lat="47.99278" lon="0.24096">
        <ele>43.1</ele>
        <time>2014-10-12T13:09:10Z</time>
      </trkpt>
      <trkpt lat="47.99271" lon="0.24089">
        <ele>42.8</ele>
        <time>2014-10-12T13:09:16Z</time>
      </trkpt>
      <trkpt lat="47.99266" lon="0.24081">
        <ele>42.9</ele>
        <time>2014-10-12T13:09:23Z</time>
      </trkpt>
      <trkpt lat="47.99264" lon="0.24073">
        <ele>43</ele>
        <time>2014-10-12T13:09:30Z</time>
      </trkpt>
      <trkpt lat="47.99262" lon="0.24065">
        <ele>43.5</ele>
        <time>2014-10-12T13:09:37Z</time>
      </trkpt>
      <trkpt lat="47.99261" lon="0.24057">
        <ele>44</ele>
        <time>2014-10-12T13:09:44Z</time>
      </trkpt>
      <trkpt lat="47.99258" lon="0.24046">
        <ele>43.9</ele>
        <time>2014-10-12T13:09:51Z</time>
      </trkpt>
      <trkpt lat="47.99254" lon="0.24035">
        <ele>43.3</ele>
        <time>2014-10-12T13:09:58Z</time>
      </trkpt>
      <trkpt lat="47.99251" lon="0.24024">
        <ele>42.5</ele>
        <time>2014-10-12T13:10:03Z</time>
      </trkpt>
      <trkpt lat="47.99249" lon="0.24012">
        <ele>41.8</ele>
        <time>2014-10-12T13:10:09Z</time>
      </trkpt>
      <trkpt lat="47.99249" lon="0.24003">
        <ele>41.2</ele>
        <time>2014-10-12T13:10:16Z</time>
      </trkpt>
      <trkpt lat="47.99247" lon="0.23996">
        <ele>40.7</ele>
        <time>2014-10-12T13:10:23Z</time>
      </trkpt>
      <trkpt lat="47.99248" lon="0.23984">
        <ele>41</ele>
        <time>2014-10-12T13:10:30Z</time>
      </trkpt>
      <trkpt lat="47.99249" lon="0.23977">
        <ele>41</ele>
        <time>2014-10-12T13:10:37Z</time>
      </trkpt>
      <trkpt lat="47.99246" lon="0.23968">
        <ele>41</ele>
        <time>2014-10-12T13:10:44Z</time>
      </trkpt>
      <trkpt lat="47.99243" lon="0.23957">
        <ele>40.4</ele>
        <time>2014-10-12T13:10:48Z</time>
      </trkpt>
      <trkpt lat="47.99239" lon="0.23947">
        <ele>40.2</ele>
        <time>2014-10-12T13:10:54Z</time>
      </trkpt>
      <trkpt lat="47.99236" lon="0.23937">
        <ele>40</ele>
        <time>2014-10-12T13:10:58Z</time>
      </trkpt>
      <trkpt lat="47.99234" lon="0.23927">
        <ele>40</ele>
        <time>2014-10-12T13:11:04Z</time>
      </trkpt>
      <trkpt lat="47.9923" lon="0.23918">
        <ele>40.3</ele>
        <time>2014-10-12T13:11:11Z</time>
      </trkpt>
      <trkpt lat="47.99225" lon="0.2391">
        <ele>40.6</ele>
        <time>2014-10-12T13:11:18Z</time>
      </trkpt>
      <trkpt lat="47.99221" lon="0.23902">
        <ele>41.2</ele>
        <time>2014-10-12T13:11:25Z</time>
      </trkpt>
      <trkpt lat="47.99215" lon="0.23901">
        <ele>41.9</ele>
        <time>2014-10-12T13:11:32Z</time>
      </trkpt>
      <trkpt lat="47.99208" lon="0.23901">
        <ele>42.1</ele>
        <time>2014-10-12T13:11:39Z</time>
      </trkpt>
      <trkpt lat="47.992" lon="0.23903">
        <ele>41.9</ele>
        <time>2014-10-12T13:11:46Z</time>
      </trkpt>
      <trkpt lat="47.99191" lon="0.23905">
        <ele>41.8</ele>
        <time>2014-10-12T13:11:51Z</time>
      </trkpt>
      <trkpt lat="47.99184" lon="0.23909">
        <ele>41.9</ele>
        <time>2014-10-12T13:11:57Z</time>
      </trkpt>
      <trkpt lat="47.99176" lon="0.23911">
        <ele>42.3</ele>
        <time>2014-10-12T13:12:02Z</time>
      </trkpt>
      <trkpt lat="47.99168" lon="0.23913">
        <ele>42.1</ele>
        <time>2014-10-12T13:12:09Z</time>
      </trkpt>
      <trkpt lat="47.99164" lon="0.23915">
        <ele>42.4</ele>
        <time>2014-10-12T13:12:16Z</time>
      </trkpt>
      <trkpt lat="47.99157" lon="0.23919">
        <ele>42.2</ele>
        <time>2014-10-12T13:12:23Z</time>
      </trkpt>
      <trkpt lat="47.99152" lon="0.23924">
        <ele>41.9</ele>
        <time>2014-10-12T13:12:30Z</time>
      </trkpt>
      <trkpt lat="47.99145" lon="0.23927">
        <ele>41.8</ele>
        <time>2014-10-12T13:12:36Z</time>
      </trkpt>
      <trkpt lat="47.99143" lon="0.2393">
        <ele>41.4</ele>
        <time>2014-10-12T13:12:43Z</time>
      </trkpt>
      <trkpt lat="47.99143" lon="0.2393">
        <ele>41.4</ele>
        <time>2014-10-12T13:12:47Z</time>
      </trkpt>
      <trkpt lat="47.9915" lon="0.2394">
        <ele>41.3</ele>
        <time>2014-10-12T13:13:15Z</time>
      </trkpt>
      <trkpt lat="47.99154" lon="0.23945">
        <ele>41.7</ele>
        <time>2014-10-12T13:13:22Z</time>
      </trkpt>
      <trkpt lat="47.99153" lon="0.23944">
        <ele>41.9</ele>
        <time>2014-10-12T13:13:29Z</time>
      </trkpt>
      <trkpt lat="47.99152" lon="0.23943">
        <ele>42</ele>
        <time>2014-10-12T13:13:36Z</time>
      </trkpt>
      <trkpt lat="47.99152" lon="0.23943">
        <ele>42</ele>
        <time>2014-10-12T13:13:37Z</time>
      </trkpt>
      <trkpt lat="47.99146" lon="0.23943">
        <ele>42.5</ele>
        <time>2014-10-12T13:13:45Z</time>
      </trkpt>
      <trkpt lat="47.99146" lon="0.23943">
        <ele>42.5</ele>
        <time>2014-10-12T13:13:49Z</time>
      </trkpt>
      <trkpt lat="47.99141" lon="0.23943">
        <ele>41.7</ele>
        <time>2014-10-12T13:13:56Z</time>
      </trkpt>
      <trkpt lat="47.99141" lon="0.23942">
        <ele>41.1</ele>
        <time>2014-10-12T13:14:03Z</time>
      </trkpt>
      <trkpt lat="47.99143" lon="0.23945">
        <ele>40.9</ele>
        <time>2014-10-12T13:14:10Z</time>
      </trkpt>
      <trkpt lat="47.99142" lon="0.23945">
        <ele>41</ele>
        <time>2014-10-12T13:14:14Z</time>
      </trkpt>
      <trkpt lat="47.99143" lon="0.23942">
        <ele>42.6</ele>
        <time>2014-10-12T13:14:23Z</time>
      </trkpt>
      <trkpt lat="47.99144" lon="0.2394">
        <ele>42.3</ele>
        <time>2014-10-12T13:14:30Z</time>
      </trkpt>
      <trkpt lat="47.99141" lon="0.23937">
        <ele>42.3</ele>
        <time>2014-10-12T13:14:37Z</time>
      </trkpt>
      <trkpt lat="47.99141" lon="0.23937">
        <ele>42.3</ele>
        <time>2014-10-12T13:14:42Z</time>
      </trkpt>
      <trkpt lat="47.99148" lon="0.23934">
        <ele>43.7</ele>
        <time>2014-10-12T13:15:13Z</time>
      </trkpt>
      <trkpt lat="47.99146" lon="0.23937">
        <ele>44.3</ele>
        <time>2014-10-12T13:15:20Z</time>
      </trkpt>
      <trkpt lat="47.99146" lon="0.23938">
        <ele>44</ele>
        <time>2014-10-12T13:15:27Z</time>
      </trkpt>
      <trkpt lat="47.99141" lon="0.23933">
        <ele>43.8</ele>
        <time>2014-10-12T13:15:36Z</time>
      </trkpt>
      <trkpt lat="47.99141" lon="0.23935">
        <ele>44.1</ele>
        <time>2014-10-12T13:15:43Z</time>
      </trkpt>
      <trkpt lat="47.99141" lon="0.23935">
        <ele>44.1</ele>
        <time>2014-10-12T13:15:45Z</time>
      </trkpt>
      <trkpt lat="47.99144" lon="0.23937">
        <ele>44</ele>
        <time>2014-10-12T13:15:57Z</time>
      </trkpt>
      <trkpt lat="47.99144" lon="0.23937">
        <ele>44</ele>
        <time>2014-10-12T13:16:02Z</time>
      </trkpt>
      <trkpt lat="47.99136" lon="0.23933">
        <ele>44.9</ele>
        <time>2014-10-12T13:16:43Z</time>
      </trkpt>
      <trkpt lat="47.99135" lon="0.23932">
        <ele>45</ele>
        <time>2014-10-12T13:16:50Z</time>
      </trkpt>
      <trkpt lat="47.99139" lon="0.2394">
        <ele>43.2</ele>
        <time>2014-10-12T13:17:24Z</time>
      </trkpt>
      <trkpt lat="47.99139" lon="0.2394">
        <ele>43.2</ele>
        <time>2014-10-12T13:17:26Z</time>
      </trkpt>
    </trkseg>
  </trk>
</gpx>